Wetterdaten: Mittwoch, 18.05.2022
Datum Zeit Temp. Aussen Temp. o. S. Temp +5cm Feuchte Auss Luftdruck Regen Sonnenschein Regendauer Solar Windben Empfang
18.05.2022 00:00 20,8 C 20,0 C 16,1 C 71 % 1018,9 hPa 0,0 l/m 0 min 0 min 0 W/m 3,2 km/h (1 Bft) 95,74 %
18.05.2022 00:02 20,8 C 20,0 C 16,1 C 71 % 1019,0 hPa 0,0 l/m 0 min 0 min 0 W/m 0,0 km/h (0 Bft) 13,33 %
18.05.2022 00:04 20,8 C 20,0 C 16,1 C 71 % 1019,0 hPa 0,0 l/m 0 min 0 min 0 W/m 12,9 km/h (3 Bft) 80,95 %
18.05.2022 00:07 20,8 C 19,4 C 16,1 C 71 % 1019,0 hPa 0,0 l/m 0 min 0 min 0 W/m 6,4 km/h (2 Bft) 97,22 %
18.05.2022 00:08 20,8 C 19,4 C 16,1 C 71 % 1019,0 hPa 0,0 l/m 0 min 0 min 0 W/m 3,2 km/h (1 Bft) 100,00 %
18.05.2022 00:10 20,7 C 19,4 C 16,1 C 71 % 1019,0 hPa 0,0 l/m 0 min 0 min 0 W/m 6,4 km/h (2 Bft) 95,74 %
18.05.2022 00:12 20,7 C 19,4 C 16,1 C 71 % 1019,0 hPa 0,0 l/m 0 min 0 min 0 W/m 3,2 km/h (1 Bft) 95,74 %
18.05.2022 00:14 20,7 C 19,4 C 16,1 C 71 % 1019,1 hPa 0,0 l/m 0 min 0 min 0 W/m 12,9 km/h (3 Bft) 95,65 %
18.05.2022 00:16 20,7 C 19,4 C 16,1 C 71 % 1019,0 hPa 0,0 l/m 0 min 0 min 0 W/m 6,4 km/h (2 Bft) 100,00 %
18.05.2022 00:18 20,7 C 19,4 C 16,1 C 72 % 1019,0 hPa 0,0 l/m 0 min 0 min 0 W/m 3,2 km/h (1 Bft) 100,00 %
18.05.2022 00:20 20,7 C 19,4 C 16,1 C 72 % 1019,0 hPa 0,0 l/m 0 min 0 min 0 W/m 6,4 km/h (2 Bft) 100,00 %
18.05.2022 00:22 20,7 C 19,4 C 16,1 C 72 % 1019,0 hPa 0,0 l/m 0 min 0 min 0 W/m 3,2 km/h (1 Bft) 97,87 %
18.05.2022 00:24 20,7 C 19,4 C 16,1 C 72 % 1019,0 hPa 0,0 l/m 0 min 0 min 0 W/m 6,4 km/h (2 Bft) 100,00 %
18.05.2022 00:26 20,7 C 19,4 C 16,1 C 72 % 1019,0 hPa 0,0 l/m 0 min 0 min 0 W/m 6,4 km/h (2 Bft) 100,00 %
18.05.2022 00:28 20,7 C 19,4 C 16,1 C 72 % 1019,0 hPa 0,0 l/m 0 min 0 min 0 W/m 3,2 km/h (1 Bft) 100,00 %
18.05.2022 00:30 20,7 C 19,4 C 16,1 C 72 % 1019,0 hPa 0,0 l/m 0 min 0 min 0 W/m 6,4 km/h (2 Bft) 100,00 %
18.05.2022 00:32 20,6 C 19,4 C 16,1 C 72 % 1019,0 hPa 0,0 l/m 0 min 0 min 0 W/m 3,2 km/h (1 Bft) 100,00 %
18.05.2022 00:34 20,6 C 19,4 C 16,1 C 72 % 1019,0 hPa 0,0 l/m 0 min 0 min 0 W/m 6,4 km/h (2 Bft) 100,00 %
18.05.2022 00:36 20,6 C 19,4 C 16,1 C 72 % 1018,9 hPa 0,0 l/m 0 min 0 min 0 W/m 6,4 km/h (2 Bft) 100,00 %
18.05.2022 00:38 20,6 C 19,4 C 16,1 C 72 % 1018,9 hPa 0,0 l/m 0 min 0 min 0 W/m 6,4 km/h (2 Bft) 100,00 %
18.05.2022 00:40 20,6 C 19,4 C 16,1 C 73 % 1018,9 hPa 0,0 l/m 0 min 0 min 0 W/m 6,4 km/h (2 Bft) 100,00 %
18.05.2022 00:42 20,6 C 19,4 C 16,1 C 73 % 1019,0 hPa 0,0 l/m 0 min 0 min 0 W/m 6,4 km/h (2 Bft) 100,00 %
18.05.2022 00:44 20,6 C 19,4 C 16,1 C 72 % 1019,0 hPa 0,0 l/m 0 min 0 min 0 W/m 6,4 km/h (2 Bft) 100,00 %
18.05.2022 00:46 20,6 C 19,4 C 16,1 C 72 % 1019,0 hPa 0,0 l/m 0 min 0 min 0 W/m 6,4 km/h (2 Bft) 97,87 %
18.05.2022 00:48 20,6 C 19,4 C 16,1 C 73 % 1019,0 hPa 0,0 l/m 0 min 0 min 0 W/m 12,9 km/h (3 Bft) 100,00 %
18.05.2022 00:50 20,6 C 19,4 C 16,1 C 72 % 1019,0 hPa 0,0 l/m 0 min 0 min 0 W/m 19,3 km/h (3 Bft) 100,00 %
18.05.2022 00:52 20,6 C 19,4 C 16,1 C 73 % 1019,0 hPa 0,0 l/m 0 min 0 min 0 W/m 9,7 km/h (2 Bft) 100,00 %
18.05.2022 00:54 20,6 C 19,4 C 16,1 C 72 % 1019,1 hPa 0,0 l/m 0 min 0 min 0 W/m 12,9 km/h (3 Bft) 100,00 %
18.05.2022 00:56 20,6 C 19,4 C 16,1 C 73 % 1019,1 hPa 0,0 l/m 0 min 0 min 0 W/m 6,4 km/h (2 Bft) 100,00 %
18.05.2022 00:58 20,6 C 19,4 C 16,1 C 73 % 1019,1 hPa 0,0 l/m 0 min 0 min 0 W/m 3,2 km/h (1 Bft) 100,00 %
18.05.2022 01:00 20,6 C 19,4 C 16,1 C 72 % 1019,1 hPa 0,0 l/m 0 min 0 min 0 W/m 12,9 km/h (3 Bft) 100,00 %
18.05.2022 01:02 20,6 C 19,4 C 16,1 C 72 % 1019,1 hPa 0,0 l/m 0 min 0 min 0 W/m 6,4 km/h (2 Bft) 97,83 %
18.05.2022 01:04 20,6 C 19,4 C 16,1 C 73 % 1019,1 hPa 0,0 l/m 0 min 0 min 0 W/m 12,9 km/h (3 Bft) 100,00 %
18.05.2022 01:06 20,5 C 19,4 C 16,1 C 73 % 1019,1 hPa 0,0 l/m 0 min 0 min 0 W/m 12,9 km/h (3 Bft) 100,00 %
18.05.2022 01:08 20,5 C 19,4 C 16,1 C 73 % 1019,0 hPa 0,0 l/m 0 min 0 min 0 W/m 6,4 km/h (2 Bft) 97,87 %
18.05.2022 01:10 20,5 C 19,4 C 16,1 C 73 % 1019,1 hPa 0,0 l/m 0 min 0 min 0 W/m 12,9 km/h (3 Bft) 100,00 %
18.05.2022 01:12 20,5 C 19,4 C 16,1 C 73 % 1019,1 hPa 0,0 l/m 0 min 0 min 0 W/m 6,4 km/h (2 Bft) 100,00 %
18.05.2022 01:14 20,4 C 19,4 C 16,1 C 73 % 1019,1 hPa 0,0 l/m 0 min 0 min 0 W/m 6,4 km/h (2 Bft) 100,00 %
18.05.2022 01:16 20,4 C 19,4 C 16,1 C 73 % 1019,1 hPa 0,0 l/m 0 min 0 min 0 W/m 6,4 km/h (2 Bft) 97,87 %
18.05.2022 01:18 20,4 C 19,4 C 15,6 C 73 % 1019,1 hPa 0,0 l/m 0 min 0 min 0 W/m 6,4 km/h (2 Bft) 100,00 %
18.05.2022 01:20 20,4 C 19,4 C 15,6 C 73 % 1019,1 hPa 0,0 l/m 0 min 0 min 0 W/m 6,4 km/h (2 Bft) 100,00 %
18.05.2022 01:22 20,4 C 18,9 C 15,6 C 73 % 1019,1 hPa 0,0 l/m 0 min 0 min 0 W/m 6,4 km/h (2 Bft) 97,87 %
18.05.2022 01:24 20,3 C 18,9 C 15,6 C 73 % 1019,1 hPa 0,0 l/m 0 min 0 min 0 W/m 6,4 km/h (2 Bft) 97,83 %
18.05.2022 01:26 20,3 C 18,9 C 15,6 C 73 % 1019,1 hPa 0,0 l/m 0 min 0 min 0 W/m 3,2 km/h (1 Bft) 97,87 %
18.05.2022 01:28 20,3 C 18,9 C 15,6 C 73 % 1019,1 hPa 0,0 l/m 0 min 0 min 0 W/m 3,2 km/h (1 Bft) 97,87 %
18.05.2022 01:30 20,3 C 18,9 C 15,6 C 73 % 1019,1 hPa 0,0 l/m 0 min 0 min 0 W/m 6,4 km/h (2 Bft) 97,87 %
18.05.2022 01:32 20,2 C 18,9 C 15,6 C 73 % 1019,1 hPa 0,0 l/m 0 min 0 min 0 W/m 3,2 km/h (1 Bft) 97,87 %
18.05.2022 01:34 20,2 C 18,9 C 15,6 C 73 % 1019,1 hPa 0,0 l/m 0 min 0 min 0 W/m 3,2 km/h (1 Bft) 97,87 %
18.05.2022 01:36 20,2 C 18,9 C 15,6 C 74 % 1019,1 hPa 0,0 l/m 0 min 0 min 0 W/m 6,4 km/h (2 Bft) 97,83 %
18.05.2022 01:38 20,2 C 18,9 C 15,6 C 74 % 1019,1 hPa 0,0 l/m 0 min 0 min 0 W/m 6,4 km/h (2 Bft) 91,49 %
18.05.2022 01:40 20,1 C 18,9 C 15,6 C 74 % 1019,2 hPa 0,0 l/m 0 min 0 min 0 W/m 3,2 km/h (1 Bft) 93,62 %
18.05.2022 01:42 20,1 C 18,9 C 15,6 C 74 % 1019,2 hPa 0,0 l/m 0 min 0 min 0 W/m 6,4 km/h (2 Bft) 93,62 %
18.05.2022 01:44 20,1 C 18,9 C 15,6 C 74 % 1019,2 hPa 0,0 l/m 0 min 0 min 0 W/m 3,2 km/h (1 Bft) 89,36 %
18.05.2022 01:46 20,1 C 18,9 C 15,6 C 74 % 1019,2 hPa 0,0 l/m 0 min 0 min 0 W/m 6,4 km/h (2 Bft) 91,49 %
18.05.2022 01:48 20,0 C 18,9 C 15,6 C 74 % 1019,2 hPa 0,0 l/m 0 min 0 min 0 W/m 3,2 km/h (1 Bft) 95,65 %
18.05.2022 01:50 20,0 C 18,9 C 15,6 C 74 % 1019,2 hPa 0,0 l/m 0 min 0 min 0 W/m 6,4 km/h (2 Bft) 93,62 %
18.05.2022 01:52 19,9 C 18,9 C 15,6 C 74 % 1019,1 hPa 0,0 l/m 0 min 0 min 0 W/m 12,9 km/h (3 Bft) 91,49 %
18.05.2022 01:54 19,9 C 18,9 C 15,6 C 74 % 1019,1 hPa 0,0 l/m 0 min 0 min 0 W/m 6,4 km/h (2 Bft) 91,49 %
18.05.2022 01:56 19,9 C 18,9 C 15,0 C 75 % 1019,2 hPa 0,0 l/m 0 min 0 min 0 W/m 6,4 km/h (2 Bft) 93,62 %
18.05.2022 01:58 19,8 C 18,9 C 15,0 C 75 % 1019,2 hPa 0,0 l/m 0 min 0 min 0 W/m 3,2 km/h (1 Bft) 91,49 %
18.05.2022 02:00 19,8 C 18,9 C 15,0 C 75 % 1019,2 hPa 0,0 l/m 0 min 0 min 0 W/m 12,9 km/h (3 Bft) 93,48 %
18.05.2022 02:02 19,8 C 18,9 C 15,0 C 75 % 1019,3 hPa 0,0 l/m 0 min 0 min 0 W/m 12,9 km/h (3 Bft) 91,49 %
18.05.2022 02:04 19,8 C 18,9 C 15,0 C 75 % 1019,3 hPa 0,0 l/m 0 min 0 min 0 W/m 6,4 km/h (2 Bft) 93,62 %
18.05.2022 02:06 19,7 C 18,9 C 15,0 C 75 % 1019,3 hPa 0,0 l/m 0 min 0 min 0 W/m 6,4 km/h (2 Bft) 93,62 %
18.05.2022 02:08 19,7 C 18,3 C 15,0 C 75 % 1019,4 hPa 0,0 l/m 0 min 0 min 0 W/m 6,4 km/h (2 Bft) 93,62 %
18.05.2022 02:10 19,7 C 18,3 C 15,0 C 75 % 1019,4 hPa 0,0 l/m 0 min 0 min 0 W/m 9,7 km/h (2 Bft) 97,87 %
18.05.2022 02:12 19,7 C 18,3 C 15,0 C 75 % 1019,4 hPa 0,0 l/m 0 min 0 min 0 W/m 6,4 km/h (2 Bft) 95,65 %
18.05.2022 02:14 19,6 C 18,3 C 15,0 C 75 % 1019,4 hPa 0,0 l/m 0 min 0 min 0 W/m 9,7 km/h (2 Bft) 97,87 %
18.05.2022 02:16 19,6 C 18,3 C 15,0 C 75 % 1019,4 hPa 0,0 l/m 0 min 0 min 0 W/m 9,7 km/h (2 Bft) 97,87 %
18.05.2022 02:18 19,6 C 18,3 C 15,0 C 75 % 1019,4 hPa 0,0 l/m 0 min 0 min 0 W/m 12,9 km/h (3 Bft) 93,62 %
18.05.2022 02:20 19,6 C 18,3 C 15,0 C 75 % 1019,4 hPa 0,0 l/m 0 min 0 min 0 W/m 6,4 km/h (2 Bft) 97,87 %
18.05.2022 02:22 19,6 C 18,3 C 15,0 C 75 % 1019,4 hPa 0,0 l/m 0 min 0 min 0 W/m 12,9 km/h (3 Bft) 97,87 %
18.05.2022 02:24 19,5 C 18,3 C 15,0 C 75 % 1019,4 hPa 0,0 l/m 0 min 0 min 0 W/m 6,4 km/h (2 Bft) 97,83 %
18.05.2022 02:26 19,5 C 18,3 C 15,0 C 75 % 1019,4 hPa 0,0 l/m 0 min 0 min 0 W/m 6,4 km/h (2 Bft) 97,87 %
18.05.2022 02:28 19,4 C 18,3 C 15,0 C 76 % 1019,4 hPa 0,0 l/m 0 min 0 min 0 W/m 6,4 km/h (2 Bft) 97,87 %
18.05.2022 02:30 19,4 C 18,3 C 15,0 C 76 % 1019,4 hPa 0,0 l/m 0 min 0 min 0 W/m 6,4 km/h (2 Bft) 100,00 %
18.05.2022 02:32 19,4 C 18,3 C 15,0 C 76 % 1019,5 hPa 0,0 l/m 0 min 0 min 0 W/m 6,4 km/h (2 Bft) 100,00 %
18.05.2022 02:34 19,3 C 18,3 C 15,0 C 76 % 1019,5 hPa 0,0 l/m 0 min 0 min 0 W/m 6,4 km/h (2 Bft) 97,87 %
18.05.2022 02:36 19,3 C 18,3 C 15,0 C 76 % 1019,5 hPa 0,0 l/m 0 min 0 min 0 W/m 12,9 km/h (3 Bft) 100,00 %
18.05.2022 02:38 19,3 C 18,3 C 15,0 C 76 % 1019,5 hPa 0,0 l/m 0 min 0 min 0 W/m 6,4 km/h (2 Bft) 100,00 %
18.05.2022 02:40 19,3 C 18,3 C 15,0 C 76 % 1019,5 hPa 0,0 l/m 0 min 0 min 0 W/m 6,4 km/h (2 Bft) 100,00 %
18.05.2022 02:42 19,2 C 18,3 C 14,4 C 76 % 1019,6 hPa 0,0 l/m 0 min 0 min 0 W/m 6,4 km/h (2 Bft) 97,87 %
18.05.2022 02:44 19,2 C 17,8 C 14,4 C 76 % 1019,5 hPa 0,0 l/m 0 min 0 min 0 W/m 12,9 km/h (3 Bft) 100,00 %
18.05.2022 02:46 19,2 C 17,8 C 14,4 C 77 % 1019,6 hPa 0,0 l/m 0 min 0 min 0 W/m 6,4 km/h (2 Bft) 100,00 %
18.05.2022 02:48 19,2 C 17,8 C 14,4 C 77 % 1019,6 hPa 0,0 l/m 0 min 0 min 0 W/m 3,2 km/h (1 Bft) 100,00 %
18.05.2022 02:50 19,1 C 17,8 C 14,4 C 76 % 1019,6 hPa 0,0 l/m 0 min 0 min 0 W/m 6,4 km/h (2 Bft) 100,00 %
18.05.2022 02:52 19,1 C 17,8 C 14,4 C 77 % 1019,6 hPa 0,0 l/m 0 min 0 min 0 W/m 12,9 km/h (3 Bft) 97,87 %
18.05.2022 02:54 19,1 C 17,8 C 14,4 C 77 % 1019,6 hPa 0,0 l/m 0 min 0 min 0 W/m 16,1 km/h (3 Bft) 100,00 %
18.05.2022 02:56 19,1 C 17,8 C 14,4 C 77 % 1019,6 hPa 0,0 l/m 0 min 0 min 0 W/m 16,1 km/h (3 Bft) 100,00 %
18.05.2022 02:58 19,0 C 17,8 C 14,4 C 77 % 1019,6 hPa 0,0 l/m 0 min 0 min 0 W/m 12,9 km/h (3 Bft) 97,87 %
18.05.2022 03:00 19,0 C 17,8 C 14,4 C 77 % 1019,7 hPa 0,0 l/m 0 min 0 min 0 W/m 6,4 km/h (2 Bft) 100,00 %
18.05.2022 03:02 18,9 C 17,8 C 14,4 C 77 % 1019,7 hPa 0,0 l/m 0 min 0 min 0 W/m 12,9 km/h (3 Bft) 100,00 %
18.05.2022 03:04 18,9 C 17,8 C 14,4 C 77 % 1019,7 hPa 0,0 l/m 0 min 0 min 0 W/m 6,4 km/h (2 Bft) 100,00 %
18.05.2022 03:06 18,9 C 17,8 C 14,4 C 77 % 1019,7 hPa 0,0 l/m 0 min 0 min 0 W/m 12,9 km/h (3 Bft) 100,00 %
18.05.2022 03:08 18,9 C 17,8 C 14,4 C 77 % 1019,7 hPa 0,0 l/m 0 min 0 min 0 W/m 16,1 km/h (3 Bft) 100,00 %
18.05.2022 03:10 18,8 C 17,8 C 14,4 C 78 % 1019,7 hPa 0,0 l/m 0 min 0 min 0 W/m 6,4 km/h (2 Bft) 100,00 %
18.05.2022 03:12 18,8 C 17,8 C 14,4 C 78 % 1019,7 hPa 0,0 l/m 0 min 0 min 0 W/m 12,9 km/h (3 Bft) 100,00 %
18.05.2022 03:14 18,8 C 17,8 C 14,4 C 78 % 1019,7 hPa 0,0 l/m 0 min 0 min 0 W/m 6,4 km/h (2 Bft) 100,00 %
18.05.2022 03:16 18,8 C 17,8 C 14,4 C 78 % 1019,7 hPa 0,0 l/m 0 min 0 min 0 W/m 3,2 km/h (1 Bft) 97,87 %
18.05.2022 03:18 18,8 C 17,8 C 14,4 C 78 % 1019,7 hPa 0,0 l/m 0 min 0 min 0 W/m 3,2 km/h (1 Bft) 100,00 %
18.05.2022 03:20 18,8 C 17,8 C 14,4 C 78 % 1019,8 hPa 0,0 l/m 0 min 0 min 0 W/m 3,2 km/h (1 Bft) 100,00 %
18.05.2022 03:22 18,7 C 17,2 C 14,4 C 78 % 1019,8 hPa 0,0 l/m 0 min 0 min 0 W/m 3,2 km/h (1 Bft) 100,00 %
18.05.2022 03:24 18,7 C 17,2 C 14,4 C 78 % 1019,8 hPa 0,0 l/m 0 min 0 min 0 W/m 6,4 km/h (2 Bft) 100,00 %
18.05.2022 03:26 18,7 C 17,2 C 13,9 C 78 % 1019,8 hPa 0,0 l/m 0 min 0 min 0 W/m 6,4 km/h (2 Bft) 100,00 %
18.05.2022 03:28 18,7 C 17,2 C 13,9 C 78 % 1019,8 hPa 0,0 l/m 0 min 0 min 0 W/m 3,2 km/h (1 Bft) 100,00 %
18.05.2022 03:30 18,6 C 17,2 C 13,9 C 78 % 1019,8 hPa 0,0 l/m 0 min 0 min 0 W/m 6,4 km/h (2 Bft) 97,87 %
18.05.2022 03:32 18,6 C 17,2 C 13,9 C 78 % 1019,8 hPa 0,0 l/m 0 min 0 min 0 W/m 3,2 km/h (1 Bft) 97,87 %
18.05.2022 03:34 18,6 C 17,2 C 13,9 C 79 % 1019,8 hPa 0,0 l/m 0 min 0 min 0 W/m 3,2 km/h (1 Bft) 97,87 %
18.05.2022 03:36 18,6 C 17,2 C 13,9 C 79 % 1019,8 hPa 0,0 l/m 0 min 0 min 0 W/m 12,9 km/h (3 Bft) 97,83 %
18.05.2022 03:38 18,5 C 17,2 C 13,9 C 79 % 1019,8 hPa 0,0 l/m 0 min 0 min 0 W/m 3,2 km/h (1 Bft) 97,87 %
18.05.2022 03:40 18,5 C 17,2 C 13,9 C 79 % 1019,7 hPa 0,0 l/m 0 min 0 min 0 W/m 3,2 km/h (1 Bft) 95,74 %
18.05.2022 03:42 18,4 C 17,2 C 13,9 C 79 % 1019,7 hPa 0,0 l/m 0 min 0 min 0 W/m 6,4 km/h (2 Bft) 97,87 %
18.05.2022 03:44 18,4 C 17,2 C 13,9 C 79 % 1019,8 hPa 0,0 l/m 0 min 0 min 0 W/m 3,2 km/h (1 Bft) 97,87 %
18.05.2022 03:46 18,4 C 17,2 C 13,9 C 79 % 1019,8 hPa 0,0 l/m 0 min 0 min 0 W/m 12,9 km/h (3 Bft) 97,87 %
18.05.2022 03:48 18,4 C 17,2 C 13,9 C 79 % 1019,8 hPa 0,0 l/m 0 min 0 min 0 W/m 6,4 km/h (2 Bft) 97,83 %
18.05.2022 03:50 18,3 C 17,2 C 13,9 C 79 % 1019,8 hPa 0,0 l/m 0 min 0 min 0 W/m 6,4 km/h (2 Bft) 97,87 %
18.05.2022 03:52 18,3 C 17,2 C 13,9 C 79 % 1019,8 hPa 0,0 l/m 0 min 0 min 0 W/m 6,4 km/h (2 Bft) 95,74 %
18.05.2022 03:54 18,3 C 17,2 C 13,9 C 79 % 1019,8 hPa 0,0 l/m 0 min 0 min 0 W/m 6,4 km/h (2 Bft) 95,74 %
18.05.2022 03:56 18,3 C 17,2 C 13,9 C 79 % 1019,9 hPa 0,0 l/m 0 min 0 min 0 W/m 12,9 km/h (3 Bft) 97,87 %
18.05.2022 03:58 18,3 C 17,2 C 13,9 C 79 % 1019,9 hPa 0,0 l/m 0 min 0 min 0 W/m 6,4 km/h (2 Bft) 95,74 %
18.05.2022 04:00 18,2 C 17,2 C 13,9 C 80 % 1019,8 hPa 0,0 l/m 0 min 0 min 0 W/m 12,9 km/h (3 Bft) 97,83 %
18.05.2022 04:02 18,2 C 17,2 C 13,9 C 80 % 1019,8 hPa 0,0 l/m 0 min 0 min 0 W/m 6,4 km/h (2 Bft) 96,43 %
18.05.2022 04:04 18,2 C 17,2 C 13,9 C 80 % 1019,8 hPa 0,0 l/m 0 min 0 min 0 W/m 6,4 km/h (2 Bft) 97,87 %
18.05.2022 04:06 18,2 C 17,2 C 13,9 C 80 % 1019,8 hPa 0,0 l/m 0 min 0 min 0 W/m 6,4 km/h (2 Bft) 100,00 %
18.05.2022 04:08 18,2 C 17,2 C 13,9 C 80 % 1019,9 hPa 0,0 l/m 0 min 0 min 0 W/m 6,4 km/h (2 Bft) 97,87 %
18.05.2022 04:10 18,2 C 17,2 C 13,9 C 80 % 1019,8 hPa 0,0 l/m 0 min 0 min 0 W/m 6,4 km/h (2 Bft) 95,74 %
18.05.2022 04:12 18,2 C 17,2 C 13,9 C 80 % 1019,9 hPa 0,0 l/m 0 min 0 min 0 W/m 6,4 km/h (2 Bft) 97,83 %
18.05.2022 04:14 18,2 C 17,2 C 13,9 C 80 % 1019,9 hPa 0,0 l/m 0 min 0 min 0 W/m 3,2 km/h (1 Bft) 95,74 %
18.05.2022 04:16 18,1 C 17,2 C 13,9 C 80 % 1019,8 hPa 0,0 l/m 0 min 0 min 0 W/m 6,4 km/h (2 Bft) 95,74 %
18.05.2022 04:18 18,1 C 17,2 C 13,9 C 80 % 1019,9 hPa 0,0 l/m 0 min 0 min 0 W/m 6,4 km/h (2 Bft) 97,87 %
18.05.2022 04:20 18,1 C 17,2 C 13,9 C 80 % 1019,9 hPa 0,0 l/m 0 min 0 min 0 W/m 6,4 km/h (2 Bft) 97,87 %
18.05.2022 04:22 18,1 C 17,2 C 13,9 C 80 % 1019,9 hPa 0,0 l/m 0 min 0 min 0 W/m 6,4 km/h (2 Bft) 97,87 %
18.05.2022 04:24 18,1 C 17,2 C 13,9 C 80 % 1019,9 hPa 0,0 l/m 0 min 0 min 0 W/m 6,4 km/h (2 Bft) 97,83 %
18.05.2022 04:26 18,1 C 17,2 C 13,9 C 80 % 1019,9 hPa 0,0 l/m 0 min 0 min 0 W/m 6,4 km/h (2 Bft) 97,87 %
18.05.2022 04:28 18,1 C 17,2 C 13,9 C 80 % 1019,8 hPa 0,0 l/m 0 min 0 min 0 W/m 12,9 km/h (3 Bft) 97,87 %
18.05.2022 04:30 18,0 C 16,7 C 13,9 C 80 % 1019,9 hPa 0,0 l/m 0 min 0 min 0 W/m 3,2 km/h (1 Bft) 97,87 %
18.05.2022 04:32 18,0 C 16,7 C 13,9 C 80 % 1019,8 hPa 0,0 l/m 0 min 0 min 0 W/m 3,2 km/h (1 Bft) 95,74 %
18.05.2022 04:34 18,0 C 16,7 C 13,9 C 80 % 1019,9 hPa 0,0 l/m 0 min 0 min 0 W/m 6,4 km/h (2 Bft) 95,74 %
18.05.2022 04:36 18,0 C 16,7 C 13,3 C 81 % 1019,9 hPa 0,0 l/m 0 min 0 min 0 W/m 6,4 km/h (2 Bft) 95,65 %
18.05.2022 04:38 17,9 C 16,7 C 13,3 C 81 % 1019,9 hPa 0,0 l/m 0 min 0 min 0 W/m 3,2 km/h (1 Bft) 93,62 %
18.05.2022 04:40 17,9 C 16,7 C 13,3 C 81 % 1019,9 hPa 0,0 l/m 0 min 0 min 0 W/m 6,4 km/h (2 Bft) 95,74 %
18.05.2022 04:42 17,9 C 16,7 C 13,3 C 81 % 1019,8 hPa 0,0 l/m 0 min 0 min 0 W/m 6,4 km/h (2 Bft) 93,62 %
18.05.2022 04:44 17,9 C 16,7 C 13,3 C 81 % 1019,8 hPa 0,0 l/m 0 min 0 min 0 W/m 6,4 km/h (2 Bft) 95,74 %
18.05.2022 04:46 17,9 C 16,7 C 13,3 C 81 % 1019,8 hPa 0,0 l/m 0 min 0 min 0 W/m 6,4 km/h (2 Bft) 93,62 %
18.05.2022 04:48 17,9 C 16,7 C 13,3 C 81 % 1019,9 hPa 0,0 l/m 0 min 0 min 0 W/m 6,4 km/h (2 Bft) 95,65 %
18.05.2022 04:50 17,8 C 16,7 C 13,3 C 81 % 1019,8 hPa 0,0 l/m 0 min 0 min 0 W/m 6,4 km/h (2 Bft) 95,74 %
18.05.2022 04:52 17,8 C 16,7 C 13,3 C 81 % 1019,8 hPa 0,0 l/m 0 min 0 min 0 W/m 6,4 km/h (2 Bft) 95,74 %
18.05.2022 04:54 17,8 C 16,7 C 13,3 C 81 % 1019,8 hPa 0,0 l/m 0 min 0 min 0 W/m 6,4 km/h (2 Bft) 93,62 %
18.05.2022 04:56 17,8 C 16,7 C 13,3 C 81 % 1019,9 hPa 0,0 l/m 0 min 0 min 0 W/m 6,4 km/h (2 Bft) 95,74 %
18.05.2022 04:58 17,8 C 16,7 C 13,3 C 81 % 1019,8 hPa 0,0 l/m 0 min 0 min 0 W/m 6,4 km/h (2 Bft) 97,87 %
18.05.2022 05:00 17,8 C 16,7 C 13,3 C 82 % 1019,8 hPa 0,0 l/m 0 min 0 min 0 W/m 3,2 km/h (1 Bft) 97,83 %
18.05.2022 05:02 17,7 C 16,7 C 13,3 C 82 % 1019,8 hPa 0,0 l/m 0 min 0 min 0 W/m 3,2 km/h (1 Bft) 95,74 %
18.05.2022 05:04 17,7 C 16,7 C 13,3 C 82 % 1019,8 hPa 0,0 l/m 0 min 0 min 0 W/m 3,2 km/h (1 Bft) 97,87 %
18.05.2022 05:06 17,7 C 16,7 C 13,3 C 82 % 1019,8 hPa 0,0 l/m 0 min 0 min 0 W/m 6,4 km/h (2 Bft) 97,87 %
18.05.2022 05:08 17,7 C 16,7 C 13,3 C 82 % 1019,8 hPa 0,0 l/m 0 min 0 min 0 W/m 3,2 km/h (1 Bft) 95,74 %
18.05.2022 05:10 17,7 C 16,7 C 13,3 C 82 % 1019,8 hPa 0,0 l/m 0 min 0 min 0 W/m 6,4 km/h (2 Bft) 97,87 %
18.05.2022 05:12 17,7 C 16,7 C 13,3 C 82 % 1019,8 hPa 0,0 l/m 0 min 0 min 0 W/m 6,4 km/h (2 Bft) 95,65 %
18.05.2022 05:14 17,7 C 16,7 C 13,3 C 82 % 1019,8 hPa 0,0 l/m 0 min 0 min 0 W/m 9,7 km/h (2 Bft) 97,87 %
18.05.2022 05:16 17,7 C 16,7 C 13,3 C 82 % 1019,8 hPa 0,0 l/m 0 min 0 min 0 W/m 6,4 km/h (2 Bft) 97,87 %
18.05.2022 05:18 17,7 C 16,7 C 13,3 C 82 % 1019,8 hPa 0,0 l/m 0 min 0 min 0 W/m 3,2 km/h (1 Bft) 97,87 %
18.05.2022 05:20 17,7 C 16,7 C 13,3 C 82 % 1019,9 hPa 0,0 l/m 0 min 0 min 0 W/m 3,2 km/h (1 Bft) 100,00 %
18.05.2022 05:22 17,7 C 16,7 C 13,3 C 82 % 1019,9 hPa 0,0 l/m 0 min 0 min 0 W/m 6,4 km/h (2 Bft) 97,96 %
18.05.2022 05:24 17,7 C 16,7 C 13,3 C 82 % 1019,9 hPa 0,0 l/m 0 min 0 min 0 W/m 6,4 km/h (2 Bft) 95,65 %
18.05.2022 05:26 17,7 C 16,7 C 13,3 C 82 % 1019,9 hPa 0,0 l/m 0 min 0 min 0 W/m 6,4 km/h (2 Bft) 97,87 %
18.05.2022 05:28 17,7 C 16,7 C 13,3 C 82 % 1019,9 hPa 0,0 l/m 0 min 0 min 0 W/m 6,4 km/h (2 Bft) 97,87 %
18.05.2022 05:30 17,7 C 16,7 C 13,3 C 82 % 1020,0 hPa 0,0 l/m 0 min 0 min 0 W/m 6,4 km/h (2 Bft) 97,87 %
18.05.2022 05:32 17,7 C 16,7 C 13,3 C 82 % 1020,0 hPa 0,0 l/m 0 min 0 min 0 W/m 6,4 km/h (2 Bft) 95,74 %
18.05.2022 05:34 17,7 C 16,7 C 13,3 C 82 % 1020,1 hPa 0,0 l/m 0 min 0 min 0 W/m 6,4 km/h (2 Bft) 97,83 %
18.05.2022 05:36 17,7 C 16,7 C 13,3 C 82 % 1020,0 hPa 0,0 l/m 0 min 0 min 2 W/m 6,4 km/h (2 Bft) 97,87 %
18.05.2022 05:38 17,7 C 16,7 C 13,3 C 82 % 1020,0 hPa 0,0 l/m 0 min 0 min 5 W/m 3,2 km/h (1 Bft) 97,87 %
18.05.2022 05:40 17,6 C 16,7 C 13,3 C 82 % 1020,0 hPa 0,0 l/m 0 min 0 min 5 W/m 12,9 km/h (3 Bft) 97,87 %
18.05.2022 05:42 17,6 C 16,7 C 13,3 C 82 % 1020,0 hPa 0,0 l/m 0 min 0 min 6 W/m 6,4 km/h (2 Bft) 95,74 %
18.05.2022 05:44 17,6 C 16,7 C 13,3 C 82 % 1020,1 hPa 0,0 l/m 0 min 0 min 7 W/m 6,4 km/h (2 Bft) 97,87 %
18.05.2022 05:46 17,6 C 16,7 C 13,3 C 82 % 1020,1 hPa 0,0 l/m 0 min 0 min 7 W/m 6,4 km/h (2 Bft) 95,74 %
18.05.2022 05:48 17,6 C 16,7 C 13,3 C 82 % 1020,1 hPa 0,0 l/m 0 min 0 min 9 W/m 6,4 km/h (2 Bft) 95,65 %
18.05.2022 05:50 17,6 C 16,7 C 13,3 C 82 % 1020,2 hPa 0,0 l/m 0 min 0 min 9 W/m 6,4 km/h (2 Bft) 97,87 %
18.05.2022 05:52 17,6 C 16,7 C 13,3 C 83 % 1020,1 hPa 0,0 l/m 0 min 0 min 9 W/m 6,4 km/h (2 Bft) 97,87 %
18.05.2022 05:54 17,6 C 16,7 C 13,3 C 83 % 1020,1 hPa 0,0 l/m 0 min 0 min 11 W/m 6,4 km/h (2 Bft) 95,74 %
18.05.2022 05:56 17,6 C 16,7 C 13,3 C 83 % 1020,1 hPa 0,0 l/m 0 min 0 min 11 W/m 6,4 km/h (2 Bft) 100,00 %
18.05.2022 05:58 17,6 C 16,7 C 13,3 C 83 % 1020,1 hPa 0,0 l/m 0 min 0 min 11 W/m 6,4 km/h (2 Bft) 100,00 %
18.05.2022 06:00 17,6 C 16,7 C 13,3 C 83 % 1020,1 hPa 0,0 l/m 0 min 0 min 12 W/m 6,4 km/h (2 Bft) 100,00 %
18.05.2022 06:02 17,6 C 16,7 C 13,3 C 83 % 1020,1 hPa 0,0 l/m 0 min 0 min 12 W/m 6,4 km/h (2 Bft) 100,00 %
18.05.2022 06:04 17,6 C 16,7 C 13,3 C 83 % 1020,1 hPa 0,0 l/m 0 min 0 min 13 W/m 6,4 km/h (2 Bft) 97,87 %
18.05.2022 06:07 17,6 C 16,7 C 13,3 C 83 % 1020,2 hPa 0,0 l/m 0 min 0 min 14 W/m 6,4 km/h (2 Bft) 100,00 %
18.05.2022 06:08 17,6 C 16,7 C 13,3 C 83 % 1020,2 hPa 0,0 l/m 0 min 0 min 16 W/m 3,2 km/h (1 Bft) 100,00 %
18.05.2022 06:10 17,6 C 16,7 C 13,3 C 83 % 1020,2 hPa 0,0 l/m 0 min 0 min 16 W/m 6,4 km/h (2 Bft) 95,74 %
18.05.2022 06:12 17,6 C 16,7 C 13,3 C 83 % 1020,3 hPa 0,0 l/m 0 min 0 min 17 W/m 6,4 km/h (2 Bft) 100,00 %
18.05.2022 06:14 17,6 C 16,7 C 13,3 C 83 % 1020,3 hPa 0,0 l/m 0 min 0 min 18 W/m 6,4 km/h (2 Bft) 100,00 %
18.05.2022 06:16 17,6 C 16,7 C 13,3 C 83 % 1020,3 hPa 0,0 l/m 0 min 0 min 19 W/m 6,4 km/h (2 Bft) 100,00 %
18.05.2022 06:18 17,6 C 16,7 C 13,3 C 83 % 1020,3 hPa 0,0 l/m 0 min 0 min 19 W/m 6,4 km/h (2 Bft) 100,00 %
18.05.2022 06:20 17,6 C 16,7 C 13,3 C 83 % 1020,4 hPa 0,0 l/m 0 min 0 min 20 W/m 12,9 km/h (3 Bft) 100,00 %
18.05.2022 06:22 17,6 C 16,7 C 13,3 C 83 % 1020,4 hPa 0,0 l/m 0 min 0 min 21 W/m 6,4 km/h (2 Bft) 100,00 %
18.05.2022 06:24 17,6 C 16,7 C 13,3 C 83 % 1020,4 hPa 0,0 l/m 0 min 0 min 21 W/m 6,4 km/h (2 Bft) 100,00 %
18.05.2022 06:26 17,6 C 16,7 C 13,3 C 83 % 1020,5 hPa 0,0 l/m 0 min 0 min 21 W/m 6,4 km/h (2 Bft) 100,00 %
18.05.2022 06:28 17,6 C 16,7 C 13,3 C 83 % 1020,4 hPa 0,0 l/m 0 min 0 min 21 W/m 9,7 km/h (2 Bft) 97,87 %
18.05.2022 06:30 17,6 C 16,7 C 13,3 C 83 % 1020,4 hPa 0,0 l/m 0 min 0 min 21 W/m 12,9 km/h (3 Bft) 100,00 %
18.05.2022 06:32 17,6 C 16,7 C 13,3 C 83 % 1020,4 hPa 0,0 l/m 0 min 0 min 21 W/m 12,9 km/h (3 Bft) 100,00 %
18.05.2022 06:34 17,6 C 16,7 C 13,3 C 83 % 1020,4 hPa 0,0 l/m 0 min 0 min 21 W/m 6,4 km/h (2 Bft) 100,00 %
18.05.2022 06:36 17,6 C 16,7 C 13,3 C 83 % 1020,3 hPa 0,0 l/m 0 min 0 min 21 W/m 6,4 km/h (2 Bft) 100,00 %
18.05.2022 06:38 17,6 C 16,7 C 13,3 C 83 % 1020,4 hPa 0,0 l/m 0 min 0 min 21 W/m 6,4 km/h (2 Bft) 100,00 %
18.05.2022 06:40 17,7 C 16,7 C 13,3 C 83 % 1020,4 hPa 0,0 l/m 0 min 0 min 23 W/m 6,4 km/h (2 Bft) 97,14 %
18.05.2022 06:42 17,7 C 16,7 C 13,3 C 83 % 1020,5 hPa 0,0 l/m 0 min 0 min 23 W/m 6,4 km/h (2 Bft) 100,00 %
18.05.2022 06:44 17,7 C 16,7 C 13,3 C 83 % 1020,4 hPa 0,0 l/m 0 min 0 min 25 W/m 6,4 km/h (2 Bft) 100,00 %
18.05.2022 06:46 17,7 C 16,7 C 13,3 C 83 % 1020,4 hPa 0,0 l/m 0 min 0 min 25 W/m 6,4 km/h (2 Bft) 100,00 %
18.05.2022 06:48 17,7 C 17,2 C 13,3 C 83 % 1020,5 hPa 0,0 l/m 0 min 0 min 26 W/m 6,4 km/h (2 Bft) 100,00 %
18.05.2022 06:50 17,7 C 17,2 C 13,3 C 83 % 1020,5 hPa 0,0 l/m 0 min 0 min 26 W/m 6,4 km/h (2 Bft) 97,83 %
18.05.2022 06:52 17,8 C 17,2 C 13,3 C 83 % 1020,5 hPa 0,0 l/m 0 min 0 min 26 W/m 6,4 km/h (2 Bft) 100,00 %
18.05.2022 06:54 17,8 C 17,2 C 13,3 C 83 % 1020,5 hPa 0,0 l/m 0 min 0 min 26 W/m 12,9 km/h (3 Bft) 93,62 %
18.05.2022 06:56 17,8 C 17,2 C 13,9 C 83 % 1020,5 hPa 0,0 l/m 0 min 0 min 26 W/m 12,9 km/h (3 Bft) 98,11 %
18.05.2022 06:58 17,8 C 17,2 C 13,9 C 83 % 1020,6 hPa 0,0 l/m 0 min 0 min 28 W/m 6,4 km/h (2 Bft) 95,74 %
18.05.2022 07:00 17,9 C 17,2 C 13,9 C 83 % 1020,6 hPa 0,0 l/m 0 min 0 min 30 W/m 6,4 km/h (2 Bft) 97,83 %
18.05.2022 07:02 17,9 C 17,2 C 13,9 C 83 % 1020,6 hPa 0,0 l/m 0 min 0 min 30 W/m 9,7 km/h (2 Bft) 97,56 %
18.05.2022 07:04 17,9 C 17,2 C 13,9 C 83 % 1020,6 hPa 0,0 l/m 0 min 0 min 29 W/m 12,9 km/h (3 Bft) 98,11 %
18.05.2022 07:06 17,9 C 17,2 C 13,9 C 83 % 1020,7 hPa 0,0 l/m 0 min 0 min 28 W/m 12,9 km/h (3 Bft) 96,61 %
18.05.2022 07:08 17,9 C 17,2 C 13,9 C 82 % 1020,6 hPa 0,0 l/m 0 min 0 min 26 W/m 6,4 km/h (2 Bft) 97,14 %
18.05.2022 07:10 18,0 C 17,2 C 13,9 C 82 % 1020,7 hPa 0,0 l/m 0 min 0 min 25 W/m 12,9 km/h (3 Bft) 97,87 %
18.05.2022 07:12 18,0 C 17,2 C 13,9 C 82 % 1020,7 hPa 0,0 l/m 0 min 0 min 25 W/m 6,4 km/h (2 Bft) 97,83 %
18.05.2022 07:14 18,1 C 17,2 C 13,9 C 82 % 1020,7 hPa 0,0 l/m 0 min 0 min 26 W/m 9,7 km/h (2 Bft) 97,87 %
18.05.2022 07:16 18,1 C 17,2 C 13,9 C 82 % 1020,8 hPa 0,0 l/m 0 min 0 min 29 W/m 12,9 km/h (3 Bft) 95,12 %
18.05.2022 07:18 18,1 C 17,2 C 13,9 C 82 % 1020,7 hPa 0,0 l/m 0 min 0 min 32 W/m 16,1 km/h (3 Bft) 96,23 %
18.05.2022 07:20 18,1 C 17,2 C 13,9 C 82 % 1020,7 hPa 0,0 l/m 0 min 0 min 33 W/m 12,9 km/h (3 Bft) 93,62 %
18.05.2022 07:22 18,1 C 17,2 C 13,9 C 82 % 1020,8 hPa 0,0 l/m 0 min 0 min 35 W/m 16,1 km/h (3 Bft) 95,74 %
18.05.2022 07:24 18,2 C 17,2 C 13,9 C 82 % 1020,8 hPa 0,0 l/m 0 min 0 min 37 W/m 12,9 km/h (3 Bft) 95,65 %
18.05.2022 07:26 18,2 C 17,8 C 13,9 C 82 % 1020,8 hPa 0,0 l/m 0 min 0 min 38 W/m 12,9 km/h (3 Bft) 93,62 %
18.05.2022 07:28 18,2 C 17,8 C 13,9 C 82 % 1020,8 hPa 0,0 l/m 0 min 0 min 39 W/m 12,9 km/h (3 Bft) 93,62 %
18.05.2022 07:30 18,2 C 17,8 C 13,9 C 82 % 1020,8 hPa 0,0 l/m 0 min 0 min 39 W/m 6,4 km/h (2 Bft) 93,62 %
18.05.2022 07:32 18,3 C 17,8 C 13,9 C 82 % 1020,9 hPa 0,0 l/m 0 min 0 min 40 W/m 12,9 km/h (3 Bft) 92,68 %
18.05.2022 07:34 18,3 C 17,8 C 13,9 C 82 % 1020,9 hPa 0,0 l/m 0 min 0 min 41 W/m 19,3 km/h (3 Bft) 92,45 %
18.05.2022 07:36 18,3 C 17,8 C 13,9 C 82 % 1020,9 hPa 0,0 l/m 0 min 0 min 42 W/m 6,4 km/h (2 Bft) 91,38 %
18.05.2022 07:38 18,4 C 17,8 C 14,4 C 81 % 1020,9 hPa 0,0 l/m 0 min 0 min 43 W/m 12,9 km/h (3 Bft) 94,29 %
18.05.2022 07:40 18,4 C 17,8 C 14,4 C 81 % 1020,9 hPa 0,0 l/m 0 min 0 min 44 W/m 12,9 km/h (3 Bft) 93,62 %
18.05.2022 07:42 18,5 C 17,8 C 14,4 C 81 % 1020,9 hPa 0,0 l/m 0 min 0 min 44 W/m 12,9 km/h (3 Bft) 95,74 %
18.05.2022 07:44 18,6 C 18,3 C 14,4 C 81 % 1020,9 hPa 0,0 l/m 0 min 0 min 46 W/m 12,9 km/h (3 Bft) 93,62 %
18.05.2022 07:46 18,6 C 18,3 C 14,4 C 81 % 1020,9 hPa 0,0 l/m 0 min 0 min 46 W/m 12,9 km/h (3 Bft) 97,56 %
18.05.2022 07:48 18,7 C 18,3 C 14,4 C 81 % 1020,9 hPa 0,0 l/m 0 min 0 min 47 W/m 6,4 km/h (2 Bft) 94,23 %
18.05.2022 07:50 18,7 C 18,3 C 14,4 C 81 % 1020,8 hPa 0,0 l/m 0 min 0 min 48 W/m 3,2 km/h (1 Bft) 93,62 %
18.05.2022 07:52 18,8 C 18,3 C 14,4 C 81 % 1020,9 hPa 0,0 l/m 0 min 0 min 60 W/m 12,9 km/h (3 Bft) 100,00 %
18.05.2022 07:54 18,8 C 18,3 C 14,4 C 81 % 1020,9 hPa 0,0 l/m 2 min 0 min 194 W/m 12,9 km/h (3 Bft) 97,87 %
18.05.2022 07:56 18,9 C 18,9 C 15,0 C 80 % 1021,0 hPa 0,0 l/m 2 min 0 min 265 W/m 6,4 km/h (2 Bft) 97,87 %
18.05.2022 07:58 19,0 C 18,9 C 15,0 C 80 % 1021,0 hPa 0,0 l/m 2 min 0 min 257 W/m 6,4 km/h (2 Bft) 95,74 %
18.05.2022 08:00 19,1 C 18,9 C 15,0 C 80 % 1021,0 hPa 0,0 l/m 2 min 0 min 257 W/m 3,2 km/h (1 Bft) 97,83 %
18.05.2022 08:02 19,1 C 18,9 C 15,0 C 80 % 1021,0 hPa 0,0 l/m 2 min 0 min 277 W/m 6,4 km/h (2 Bft) 95,12 %
18.05.2022 08:04 19,2 C 18,9 C 15,0 C 80 % 1021,0 hPa 0,0 l/m 2 min 0 min 279 W/m 6,4 km/h (2 Bft) 97,92 %
18.05.2022 08:06 19,3 C 18,9 C 15,0 C 80 % 1020,9 hPa 0,0 l/m 2 min 0 min 271 W/m 6,4 km/h (2 Bft) 96,61 %
18.05.2022 08:08 19,3 C 18,9 C 15,0 C 79 % 1020,9 hPa 0,0 l/m 2 min 0 min 196 W/m 6,4 km/h (2 Bft) 100,00 %
18.05.2022 08:10 19,4 C 19,4 C 15,0 C 79 % 1021,0 hPa 0,0 l/m 2 min 0 min 227 W/m 6,4 km/h (2 Bft) 97,87 %
18.05.2022 08:12 19,5 C 19,4 C 15,0 C 79 % 1021,0 hPa 0,0 l/m 2 min 0 min 310 W/m 6,4 km/h (2 Bft) 100,00 %
18.05.2022 08:14 19,6 C 20,0 C 15,6 C 79 % 1021,0 hPa 0,0 l/m 2 min 0 min 317 W/m 6,4 km/h (2 Bft) 97,83 %
18.05.2022 08:16 19,8 C 20,6 C 15,6 C 78 % 1021,0 hPa 0,0 l/m 2 min 0 min 321 W/m 12,9 km/h (3 Bft) 97,87 %
18.05.2022 08:18 19,9 C 21,1 C 15,6 C 78 % 1021,0 hPa 0,0 l/m 2 min 0 min 321 W/m 16,1 km/h (3 Bft) 97,87 %
18.05.2022 08:20 20,0 C 21,7 C 15,6 C 78 % 1021,1 hPa 0,0 l/m 2 min 0 min 340 W/m 6,4 km/h (2 Bft) 100,00 %
18.05.2022 08:22 20,1 C 22,8 C 15,6 C 77 % 1021,1 hPa 0,0 l/m 2 min 0 min 344 W/m 3,2 km/h (1 Bft) 97,87 %
18.05.2022 08:24 20,2 C 22,8 C 15,6 C 77 % 1021,1 hPa 0,0 l/m 2 min 0 min 335 W/m 12,9 km/h (3 Bft) 95,74 %
18.05.2022 08:26 20,3 C 23,3 C 16,1 C 76 % 1021,1 hPa 0,0 l/m 2 min 0 min 359 W/m 6,4 km/h (2 Bft) 100,00 %
18.05.2022 08:28 20,5 C 23,3 C 16,1 C 75 % 1021,2 hPa 0,0 l/m 2 min 0 min 366 W/m 9,7 km/h (2 Bft) 100,00 %
18.05.2022 08:30 20,6 C 23,9 C 16,1 C 75 % 1021,3 hPa 0,0 l/m 2 min 0 min 365 W/m 9,7 km/h (2 Bft) 97,87 %
18.05.2022 08:32 20,7 C 23,9 C 16,1 C 74 % 1021,3 hPa 0,0 l/m 2 min 0 min 374 W/m 6,4 km/h (2 Bft) 100,00 %
18.05.2022 08:34 20,8 C 23,3 C 16,1 C 73 % 1021,3 hPa 0,0 l/m 2 min 0 min 381 W/m 12,9 km/h (3 Bft) 100,00 %
18.05.2022 08:36 20,9 C 23,9 C 16,7 C 73 % 1021,2 hPa 0,0 l/m 2 min 0 min 387 W/m 6,4 km/h (2 Bft) 98,28 %
18.05.2022 08:38 21,1 C 24,4 C 16,7 C 73 % 1021,2 hPa 0,0 l/m 2 min 0 min 392 W/m 9,7 km/h (2 Bft) 100,00 %
18.05.2022 08:40 21,2 C 24,4 C 16,7 C 73 % 1021,3 hPa 0,0 l/m 2 min 0 min 395 W/m 12,9 km/h (3 Bft) 100,00 %
18.05.2022 08:42 21,3 C 24,4 C 17,2 C 72 % 1021,3 hPa 0,0 l/m 2 min 0 min 397 W/m 9,7 km/h (2 Bft) 100,00 %
18.05.2022 08:44 21,4 C 25,0 C 17,2 C 72 % 1021,3 hPa 0,0 l/m 2 min 0 min 403 W/m 16,1 km/h (3 Bft) 100,00 %
18.05.2022 08:46 21,5 C 24,4 C 17,8 C 72 % 1021,3 hPa 0,0 l/m 2 min 0 min 401 W/m 12,9 km/h (3 Bft) 100,00 %
18.05.2022 08:48 21,6 C 25,0 C 17,8 C 72 % 1021,3 hPa 0,0 l/m 2 min 0 min 404 W/m 9,7 km/h (2 Bft) 100,00 %
18.05.2022 08:50 21,7 C 25,6 C 17,8 C 72 % 1021,2 hPa 0,0 l/m 2 min 0 min 405 W/m 9,7 km/h (2 Bft) 100,00 %
18.05.2022 08:52 21,8 C 25,6 C 17,8 C 71 % 1021,3 hPa 0,0 l/m 2 min 0 min 409 W/m 6,4 km/h (2 Bft) 100,00 %
18.05.2022 08:54 21,9 C 26,1 C 18,3 C 71 % 1021,2 hPa 0,0 l/m 2 min 0 min 414 W/m 16,1 km/h (3 Bft) 100,00 %
18.05.2022 08:56 22,0 C 25,6 C 18,3 C 70 % 1021,2 hPa 0,0 l/m 2 min 0 min 424 W/m 16,1 km/h (3 Bft) 100,00 %
18.05.2022 08:58 22,1 C 25,6 C 18,3 C 70 % 1021,2 hPa 0,0 l/m 2 min 0 min 440 W/m 16,1 km/h (3 Bft) 100,00 %
18.05.2022 09:00 22,1 C 25,0 C 18,9 C 70 % 1021,1 hPa 0,0 l/m 2 min 0 min 441 W/m 16,1 km/h (3 Bft) 97,83 %
18.05.2022 09:02 22,1 C 25,6 C 18,9 C 70 % 1021,1 hPa 0,0 l/m 2 min 0 min 456 W/m 16,1 km/h (3 Bft) 100,00 %
18.05.2022 09:04 22,1 C 26,1 C 19,4 C 70 % 1021,1 hPa 0,0 l/m 2 min 0 min 469 W/m 16,1 km/h (3 Bft) 100,00 %
18.05.2022 09:06 22,2 C 26,7 C 20,0 C 70 % 1021,1 hPa 0,0 l/m 2 min 0 min 477 W/m 12,9 km/h (3 Bft) 100,00 %
18.05.2022 09:08 22,3 C 27,2 C 20,0 C 70 % 1021,1 hPa 0,0 l/m 2 min 0 min 482 W/m 9,7 km/h (2 Bft) 100,00 %
18.05.2022 09:10 22,4 C 27,8 C 20,0 C 69 % 1021,1 hPa 0,0 l/m 2 min 0 min 489 W/m 6,4 km/h (2 Bft) 97,87 %
18.05.2022 09:12 22,6 C 27,8 C 20,6 C 70 % 1021,1 hPa 0,0 l/m 2 min 0 min 487 W/m 12,9 km/h (3 Bft) 97,83 %
18.05.2022 09:14 22,7 C 28,3 C 20,6 C 69 % 1021,1 hPa 0,0 l/m 2 min 0 min 498 W/m 12,9 km/h (3 Bft) 97,87 %
18.05.2022 09:16 22,8 C 28,3 C 21,1 C 69 % 1021,1 hPa 0,0 l/m 2 min 0 min 506 W/m 9,7 km/h (2 Bft) 100,00 %
18.05.2022 09:18 22,9 C 28,3 C 21,1 C 69 % 1021,1 hPa 0,0 l/m 2 min 0 min 503 W/m 12,9 km/h (3 Bft) 100,00 %
18.05.2022 09:20 23,0 C 28,3 C 21,7 C 68 % 1021,1 hPa 0,0 l/m 2 min 0 min 510 W/m 12,9 km/h (3 Bft) 100,00 %
18.05.2022 09:22 23,1 C 27,8 C 21,7 C 69 % 1021,2 hPa 0,0 l/m 2 min 0 min 510 W/m 16,1 km/h (3 Bft) 97,87 %
18.05.2022 09:24 23,1 C 27,2 C 21,7 C 68 % 1021,2 hPa 0,0 l/m 2 min 0 min 519 W/m 16,1 km/h (3 Bft) 97,83 %
18.05.2022 09:26 23,2 C 27,2 C 21,7 C 67 % 1021,2 hPa 0,0 l/m 2 min 0 min 518 W/m 16,1 km/h (3 Bft) 97,87 %
18.05.2022 09:28 23,2 C 27,8 C 21,7 C 67 % 1021,2 hPa 0,0 l/m 2 min 0 min 507 W/m 12,9 km/h (3 Bft) 97,87 %
18.05.2022 09:30 23,3 C 28,3 C 22,2 C 67 % 1021,2 hPa 0,0 l/m 2 min 0 min 511 W/m 6,4 km/h (2 Bft) 97,87 %
18.05.2022 09:32 23,4 C 28,3 C 22,2 C 67 % 1021,2 hPa 0,0 l/m 2 min 0 min 523 W/m 6,4 km/h (2 Bft) 95,74 %
18.05.2022 09:34 23,6 C 28,3 C 22,8 C 67 % 1021,2 hPa 0,0 l/m 2 min 0 min 541 W/m 6,4 km/h (2 Bft) 95,74 %
18.05.2022 09:36 23,6 C 28,3 C 22,8 C 67 % 1021,2 hPa 0,0 l/m 2 min 0 min 553 W/m 6,4 km/h (2 Bft) 98,28 %
18.05.2022 09:38 23,7 C 27,8 C 22,8 C 67 % 1021,2 hPa 0,0 l/m 2 min 0 min 545 W/m 9,7 km/h (2 Bft) 97,14 %
18.05.2022 09:40 23,8 C 27,8 C 22,8 C 66 % 1021,2 hPa 0,0 l/m 2 min 0 min 553 W/m 9,7 km/h (2 Bft) 97,87 %
18.05.2022 09:42 23,8 C 28,3 C 23,3 C 66 % 1021,2 hPa 0,0 l/m 2 min 0 min 551 W/m 9,7 km/h (2 Bft) 97,87 %
18.05.2022 09:44 24,0 C 28,9 C 23,3 C 66 % 1021,2 hPa 0,0 l/m 2 min 0 min 560 W/m 6,4 km/h (2 Bft) 97,87 %
18.05.2022 09:46 24,1 C 28,9 C 23,9 C 66 % 1021,3 hPa 0,0 l/m 2 min 0 min 572 W/m 6,4 km/h (2 Bft) 97,87 %
18.05.2022 09:48 24,2 C 28,3 C 23,9 C 66 % 1021,2 hPa 0,0 l/m 2 min 0 min 577 W/m 6,4 km/h (2 Bft) 97,83 %
18.05.2022 09:50 24,3 C 28,3 C 23,9 C 66 % 1021,2 hPa 0,0 l/m 2 min 0 min 584 W/m 12,9 km/h (3 Bft) 97,87 %
18.05.2022 09:52 24,4 C 28,9 C 23,9 C 66 % 1021,3 hPa 0,0 l/m 2 min 0 min 582 W/m 6,4 km/h (2 Bft) 97,87 %
18.05.2022 09:54 24,5 C 28,9 C 23,9 C 65 % 1021,3 hPa 0,0 l/m 2 min 0 min 592 W/m 9,7 km/h (2 Bft) 95,74 %
18.05.2022 09:56 24,6 C 28,9 C 24,4 C 65 % 1021,2 hPa 0,0 l/m 2 min 0 min 595 W/m 12,9 km/h (3 Bft) 95,74 %
18.05.2022 09:58 24,6 C 28,3 C 24,4 C 65 % 1021,2 hPa 0,0 l/m 2 min 0 min 598 W/m 12,9 km/h (3 Bft) 93,62 %
18.05.2022 10:00 24,6 C 28,9 C 24,4 C 65 % 1021,2 hPa 0,0 l/m 2 min 0 min 598 W/m 12,9 km/h (3 Bft) 97,83 %
18.05.2022 10:02 24,7 C 28,9 C 24,4 C 64 % 1021,3 hPa 0,0 l/m 2 min 0 min 612 W/m 9,7 km/h (2 Bft) 97,87 %
18.05.2022 10:04 24,8 C 28,9 C 24,4 C 64 % 1021,3 hPa 0,0 l/m 2 min 0 min 601 W/m 9,7 km/h (2 Bft) 93,62 %
18.05.2022 10:06 24,8 C 28,3 C 23,9 C 64 % 1021,3 hPa 0,0 l/m 2 min 0 min 614 W/m 6,4 km/h (2 Bft) 96,61 %
18.05.2022 10:08 24,8 C 28,3 C 23,9 C 63 % 1021,4 hPa 0,0 l/m 2 min 0 min 637 W/m 6,4 km/h (2 Bft) 100,00 %
18.05.2022 10:10 24,8 C 28,9 C 23,9 C 63 % 1021,4 hPa 0,0 l/m 2 min 0 min 637 W/m 9,7 km/h (2 Bft) 95,74 %
18.05.2022 10:12 24,9 C 28,3 C 23,3 C 63 % 1021,4 hPa 0,0 l/m 2 min 0 min 632 W/m 9,7 km/h (2 Bft) 95,65 %
18.05.2022 10:14 24,9 C 28,3 C 23,9 C 63 % 1021,3 hPa 0,0 l/m 2 min 0 min 616 W/m 9,7 km/h (2 Bft) 97,87 %
18.05.2022 10:16 24,9 C 28,3 C 23,3 C 63 % 1021,3 hPa 0,0 l/m 2 min 0 min 643 W/m 6,4 km/h (2 Bft) 97,87 %
18.05.2022 10:18 25,0 C 28,3 C 23,9 C 63 % 1021,3 hPa 0,0 l/m 2 min 0 min 653 W/m 6,4 km/h (2 Bft) 97,87 %
18.05.2022 10:20 24,9 C 27,8 C 23,9 C 62 % 1021,3 hPa 0,0 l/m 2 min 0 min 660 W/m 12,9 km/h (3 Bft) 95,74 %
18.05.2022 10:22 24,9 C 27,8 C 24,4 C 63 % 1021,2 hPa 0,0 l/m 2 min 0 min 664 W/m 6,4 km/h (2 Bft) 95,74 %
18.05.2022 10:24 25,0 C 27,8 C 25,0 C 63 % 1021,2 hPa 0,0 l/m 2 min 0 min 668 W/m 6,4 km/h (2 Bft) 95,65 %
18.05.2022 10:26 25,1 C 27,8 C 25,0 C 62 % 1021,3 hPa 0,0 l/m 2 min 0 min 671 W/m 9,7 km/h (2 Bft) 93,62 %
18.05.2022 10:28 25,1 C 27,2 C 25,6 C 61 % 1021,3 hPa 0,0 l/m 2 min 0 min 671 W/m 3,2 km/h (1 Bft) 93,62 %
18.05.2022 10:30 25,1 C 26,7 C 25,0 C 61 % 1021,3 hPa 0,0 l/m 2 min 0 min 675 W/m 16,1 km/h (3 Bft) 95,74 %
18.05.2022 10:32 25,1 C 26,1 C 23,9 C 61 % 1021,3 hPa 0,0 l/m 2 min 0 min 678 W/m 6,4 km/h (2 Bft) 95,74 %
18.05.2022 10:34 25,2 C 26,1 C 23,3 C 61 % 1021,4 hPa 0,0 l/m 2 min 0 min 677 W/m 6,4 km/h (2 Bft) 95,74 %
18.05.2022 10:36 25,2 C 26,1 C 23,3 C 61 % 1021,4 hPa 0,0 l/m 2 min 0 min 674 W/m 6,4 km/h (2 Bft) 93,10 %
18.05.2022 10:38 25,2 C 26,1 C 23,3 C 62 % 1021,4 hPa 0,0 l/m 2 min 0 min 684 W/m 6,4 km/h (2 Bft) 97,14 %
18.05.2022 10:40 25,2 C 25,6 C 23,3 C 61 % 1021,3 hPa 0,0 l/m 2 min 0 min 689 W/m 6,4 km/h (2 Bft) 95,74 %
18.05.2022 10:42 25,3 C 26,1 C 22,8 C 62 % 1021,3 hPa 0,0 l/m 2 min 0 min 696 W/m 6,4 km/h (2 Bft) 97,87 %
18.05.2022 10:44 25,3 C 26,1 C 22,8 C 62 % 1021,4 hPa 0,0 l/m 2 min 0 min 713 W/m 6,4 km/h (2 Bft) 97,87 %
18.05.2022 10:46 25,4 C 26,1 C 22,8 C 62 % 1021,4 hPa 0,0 l/m 2 min 0 min 720 W/m 6,4 km/h (2 Bft) 93,62 %
18.05.2022 10:48 25,4 C 26,1 C 22,8 C 62 % 1021,3 hPa 0,0 l/m 2 min 0 min 734 W/m 9,7 km/h (2 Bft) 97,83 %
18.05.2022 10:50 25,5 C 26,1 C 22,2 C 62 % 1021,4 hPa 0,0 l/m 2 min 0 min 757 W/m 9,7 km/h (2 Bft) 97,87 %
18.05.2022 10:52 25,6 C 26,1 C 22,2 C 61 % 1021,4 hPa 0,0 l/m 2 min 0 min 794 W/m 6,4 km/h (2 Bft) 97,87 %
18.05.2022 10:54 25,5 C 26,1 C 22,2 C 61 % 1021,3 hPa 0,0 l/m 2 min 0 min 836 W/m 6,4 km/h (2 Bft) 97,87 %
18.05.2022 10:56 25,6 C 26,1 C 22,2 C 62 % 1021,3 hPa 0,0 l/m 2 min 0 min 746 W/m 6,4 km/h (2 Bft) 95,74 %
18.05.2022 10:58 25,6 C 26,1 C 22,2 C 61 % 1021,3 hPa 0,0 l/m 0 min 0 min 283 W/m 9,7 km/h (2 Bft) 97,83 %
18.05.2022 11:00 25,6 C 26,1 C 22,2 C 61 % 1021,3 hPa 0,0 l/m 0 min 0 min 292 W/m 9,7 km/h (2 Bft) 97,87 %
18.05.2022 11:02 25,6 C 26,7 C 22,2 C 61 % 1021,3 hPa 0,0 l/m 2 min 0 min 403 W/m 6,4 km/h (2 Bft) 97,87 %
18.05.2022 11:04 25,7 C 27,2 C 22,2 C 61 % 1021,4 hPa 0,0 l/m 2 min 0 min 830 W/m 6,4 km/h (2 Bft) 97,87 %
18.05.2022 11:06 25,7 C 27,2 C 21,7 C 60 % 1021,3 hPa 0,0 l/m 2 min 0 min 742 W/m 6,4 km/h (2 Bft) 96,61 %
18.05.2022 11:08 25,7 C 27,8 C 21,7 C 60 % 1021,3 hPa 0,0 l/m 2 min 0 min 848 W/m 6,4 km/h (2 Bft) 100,00 %
18.05.2022 11:10 25,8 C 28,3 C 22,2 C 61 % 1021,3 hPa 0,0 l/m 2 min 0 min 855 W/m 6,4 km/h (2 Bft) 97,87 %
18.05.2022 11:12 25,9 C 28,3 C 22,2 C 61 % 1021,3 hPa 0,0 l/m 2 min 0 min 865 W/m 6,4 km/h (2 Bft) 95,65 %
18.05.2022 11:14 26,1 C 27,8 C 22,2 C 60 % 1021,3 hPa 0,0 l/m 2 min 0 min 874 W/m 12,9 km/h (3 Bft) 97,87 %
18.05.2022 11:16 26,1 C 27,2 C 22,2 C 60 % 1021,3 hPa 0,0 l/m 2 min 0 min 554 W/m 6,4 km/h (2 Bft) 100,00 %
18.05.2022 11:18 26,2 C 27,2 C 22,2 C 60 % 1021,3 hPa 0,0 l/m 2 min 0 min 621 W/m 6,4 km/h (2 Bft) 100,00 %
18.05.2022 11:20 26,2 C 27,2 C 22,2 C 60 % 1021,3 hPa 0,0 l/m 2 min 0 min 770 W/m 16,1 km/h (3 Bft) 100,00 %
18.05.2022 11:22 26,3 C 27,8 C 21,7 C 59 % 1021,3 hPa 0,0 l/m 2 min 0 min 804 W/m 3,2 km/h (1 Bft) 95,74 %
18.05.2022 11:24 26,3 C 27,8 C 21,7 C 60 % 1021,3 hPa 0,0 l/m 2 min 0 min 793 W/m 9,7 km/h (2 Bft) 100,00 %
18.05.2022 11:26 26,3 C 27,8 C 21,7 C 60 % 1021,3 hPa 0,0 l/m 2 min 0 min 795 W/m 12,9 km/h (3 Bft) 97,87 %
18.05.2022 11:28 26,3 C 28,3 C 22,2 C 61 % 1021,4 hPa 0,0 l/m 2 min 0 min 774 W/m 6,4 km/h (2 Bft) 97,87 %
18.05.2022 11:30 26,4 C 28,3 C 22,2 C 60 % 1021,4 hPa 0,0 l/m 2 min 0 min 778 W/m 12,9 km/h (3 Bft) 97,87 %
18.05.2022 11:32 26,4 C 28,3 C 22,2 C 60 % 1021,3 hPa 0,0 l/m 2 min 0 min 765 W/m 6,4 km/h (2 Bft) 95,74 %
18.05.2022 11:34 26,5 C 28,3 C 22,2 C 59 % 1021,3 hPa 0,0 l/m 2 min 0 min 730 W/m 3,2 km/h (1 Bft) 95,65 %
18.05.2022 11:36 26,5 C 28,3 C 22,2 C 59 % 1021,3 hPa 0,0 l/m 2 min 0 min 733 W/m 6,4 km/h (2 Bft) 98,31 %
18.05.2022 11:38 26,6 C 28,9 C 22,8 C 59 % 1021,3 hPa 0,0 l/m 2 min 0 min 741 W/m 6,4 km/h (2 Bft) 97,14 %
18.05.2022 11:40 26,6 C 28,3 C 22,8 C 59 % 1021,3 hPa 0,0 l/m 2 min 0 min 748 W/m 3,2 km/h (1 Bft) 97,87 %
18.05.2022 11:42 26,5 C 27,8 C 22,2 C 60 % 1021,2 hPa 0,0 l/m 2 min 0 min 748 W/m 6,4 km/h (2 Bft) 93,62 %
18.05.2022 11:44 26,4 C 28,3 C 22,8 C 60 % 1021,2 hPa 0,0 l/m 2 min 0 min 813 W/m 6,4 km/h (2 Bft) 97,87 %
18.05.2022 11:46 26,4 C 28,9 C 23,3 C 61 % 1021,2 hPa 0,0 l/m 2 min 0 min 815 W/m 3,2 km/h (1 Bft) 95,65 %
18.05.2022 11:48 26,6 C 29,4 C 23,9 C 60 % 1021,2 hPa 0,0 l/m 2 min 0 min 822 W/m 12,9 km/h (3 Bft) 97,87 %
18.05.2022 11:50 26,6 C 29,4 C 23,9 C 60 % 1021,2 hPa 0,0 l/m 2 min 0 min 848 W/m 9,7 km/h (2 Bft) 95,74 %
18.05.2022 11:52 26,8 C 29,4 C 23,9 C 61 % 1021,2 hPa 0,0 l/m 2 min 0 min 853 W/m 6,4 km/h (2 Bft) 97,87 %
18.05.2022 11:54 26,9 C 28,9 C 23,9 C 60 % 1021,2 hPa 0,0 l/m 2 min 0 min 801 W/m 6,4 km/h (2 Bft) 100,00 %
18.05.2022 11:56 26,9 C 28,9 C 23,9 C 59 % 1021,2 hPa 0,0 l/m 2 min 0 min 739 W/m 3,2 km/h (1 Bft) 100,00 %
18.05.2022 11:58 26,9 C 28,9 C 23,3 C 59 % 1021,1 hPa 0,0 l/m 2 min 0 min 849 W/m 6,4 km/h (2 Bft) 100,00 %
18.05.2022 12:00 27,0 C 30,0 C 23,9 C 60 % 1021,1 hPa 0,0 l/m 2 min 0 min 838 W/m 6,4 km/h (2 Bft) 100,00 %
18.05.2022 12:02 27,1 C 30,0 C 24,4 C 59 % 1021,1 hPa 0,0 l/m 2 min 0 min 816 W/m 9,7 km/h (2 Bft) 97,87 %
18.05.2022 12:04 27,2 C 29,4 C 25,0 C 58 % 1021,1 hPa 0,0 l/m 2 min 0 min 843 W/m 6,4 km/h (2 Bft) 100,00 %
18.05.2022 12:07 27,3 C 30,0 C 26,7 C 58 % 1021,1 hPa 0,0 l/m 3 min 0 min 844 W/m 6,4 km/h (2 Bft) 98,86 %
18.05.2022 12:08 27,4 C 30,0 C 27,2 C 58 % 1021,1 hPa 0,0 l/m 1 min 0 min 839 W/m 3,2 km/h (1 Bft) 100,00 %
18.05.2022 12:10 27,6 C 30,0 C 28,3 C 58 % 1021,1 hPa 0,0 l/m 2 min 0 min 838 W/m 3,2 km/h (1 Bft) 100,00 %
18.05.2022 12:12 27,7 C 30,6 C 30,0 C 58 % 1021,1 hPa 0,0 l/m 2 min 0 min 823 W/m 12,9 km/h (3 Bft) 100,00 %
18.05.2022 12:14 27,7 C 30,6 C 30,6 C 57 % 1021,1 hPa 0,0 l/m 2 min 0 min 821 W/m 9,7 km/h (2 Bft) 100,00 %
18.05.2022 12:16 27,8 C 30,0 C 31,1 C 57 % 1021,1 hPa 0,0 l/m 2 min 0 min 838 W/m 12,9 km/h (3 Bft) 100,00 %
18.05.2022 12:18 27,9 C 30,0 C 31,1 C 57 % 1021,1 hPa 0,0 l/m 2 min 0 min 844 W/m 6,4 km/h (2 Bft) 100,00 %
18.05.2022 12:20 28,0 C 30,6 C 31,1 C 57 % 1021,1 hPa 0,0 l/m 2 min 0 min 827 W/m 3,2 km/h (1 Bft) 100,00 %
18.05.2022 12:22 28,2 C 31,1 C 31,7 C 57 % 1021,0 hPa 0,0 l/m 2 min 0 min 834 W/m 3,2 km/h (1 Bft) 100,00 %
18.05.2022 12:24 28,3 C 31,7 C 31,1 C 58 % 1021,0 hPa 0,0 l/m 2 min 0 min 810 W/m 9,7 km/h (2 Bft) 100,00 %
18.05.2022 12:26 28,4 C 32,2 C 31,1 C 58 % 1021,0 hPa 0,0 l/m 2 min 0 min 787 W/m 6,4 km/h (2 Bft) 100,00 %
18.05.2022 12:28 28,6 C 31,7 C 31,7 C 57 % 1021,0 hPa 0,0 l/m 2 min 0 min 822 W/m 9,7 km/h (2 Bft) 100,00 %
18.05.2022 12:30 28,7 C 31,7 C 32,2 C 56 % 1021,0 hPa 0,0 l/m 2 min 0 min 820 W/m 6,4 km/h (2 Bft) 100,00 %
18.05.2022 12:32 28,8 C 30,6 C 32,2 C 55 % 1020,9 hPa 0,0 l/m 2 min 0 min 806 W/m 6,4 km/h (2 Bft) 100,00 %
18.05.2022 12:34 28,8 C 30,6 C 32,8 C 54 % 1020,9 hPa 0,0 l/m 2 min 0 min 824 W/m 6,4 km/h (2 Bft) 100,00 %
18.05.2022 12:36 28,9 C 31,1 C 32,2 C 56 % 1020,9 hPa 0,0 l/m 2 min 0 min 826 W/m 6,4 km/h (2 Bft) 100,00 %
18.05.2022 12:38 29,0 C 31,1 C 32,8 C 54 % 1020,9 hPa 0,0 l/m 2 min 0 min 823 W/m 6,4 km/h (2 Bft) 97,87 %
18.05.2022 12:40 29,1 C 30,6 C 32,2 C 54 % 1020,9 hPa 0,0 l/m 2 min 0 min 874 W/m 3,2 km/h (1 Bft) 97,87 %
18.05.2022 12:42 29,2 C 31,1 C 33,3 C 55 % 1020,9 hPa 0,0 l/m 2 min 0 min 881 W/m 6,4 km/h (2 Bft) 97,73 %
18.05.2022 12:44 29,2 C 31,1 C 33,3 C 53 % 1020,8 hPa 0,0 l/m 2 min 0 min 878 W/m 6,4 km/h (2 Bft) 97,87 %
18.05.2022 12:46 29,3 C 31,7 C 33,9 C 55 % 1020,8 hPa 0,0 l/m 2 min 0 min 882 W/m 9,7 km/h (2 Bft) 95,65 %
18.05.2022 12:48 29,4 C 31,1 C 32,8 C 54 % 1020,8 hPa 0,0 l/m 2 min 0 min 854 W/m 9,7 km/h (2 Bft) 97,87 %
18.05.2022 12:50 29,4 C 31,7 C 32,2 C 54 % 1020,9 hPa 0,0 l/m 2 min 0 min 861 W/m 6,4 km/h (2 Bft) 95,74 %
18.05.2022 12:52 29,4 C 31,1 C 31,7 C 54 % 1020,8 hPa 0,0 l/m 2 min 0 min 874 W/m 6,4 km/h (2 Bft) 93,62 %
18.05.2022 12:55 29,4 C 31,1 C 32,2 C 53 % 1020,8 hPa 0,0 l/m 3 min 0 min 873 W/m 16,1 km/h (3 Bft) 99,12 %
18.05.2022 12:58 29,6 C 31,1 C 32,2 C 52 % 1020,8 hPa 0,0 l/m 3 min 0 min 874 W/m 9,7 km/h (2 Bft) 91,67 %
18.05.2022 13:03 29,6 C 31,1 C 31,1 C 51 % 1020,7 hPa 0,0 l/m 5 min 0 min 877 W/m 12,9 km/h (3 Bft) 100,00 %
18.05.2022 13:04 29,6 C 31,1 C 30,6 C 51 % 1020,7 hPa 0,0 l/m 1 min 0 min 871 W/m 6,4 km/h (2 Bft) 91,67 %
18.05.2022 13:06 29,6 C 31,1 C 30,0 C 52 % 1020,7 hPa 0,0 l/m 2 min 0 min 871 W/m 6,4 km/h (2 Bft) 93,62 %
18.05.2022 13:08 29,7 C 31,1 C 28,9 C 52 % 1020,7 hPa 0,0 l/m 2 min 0 min 885 W/m 6,4 km/h (2 Bft) 95,74 %
18.05.2022 13:10 29,7 C 31,7 C 28,3 C 52 % 1020,6 hPa 0,0 l/m 2 min 0 min 887 W/m 9,7 km/h (2 Bft) 93,62 %
18.05.2022 13:12 29,8 C 31,7 C 27,8 C 51 % 1020,6 hPa 0,0 l/m 2 min 0 min 891 W/m 6,4 km/h (2 Bft) 95,65 %
18.05.2022 13:14 29,9 C 31,7 C 27,2 C 51 % 1020,6 hPa 0,0 l/m 2 min 0 min 888 W/m 3,2 km/h (1 Bft) 93,62 %
18.05.2022 13:16 29,9 C 31,7 C 27,2 C 51 % 1020,6 hPa 0,0 l/m 2 min 0 min 889 W/m 6,4 km/h (2 Bft) 93,62 %
18.05.2022 13:18 29,9 C 31,7 C 26,7 C 51 % 1020,6 hPa 0,0 l/m 2 min 0 min 887 W/m 12,9 km/h (3 Bft) 91,49 %
18.05.2022 13:20 30,1 C 32,2 C 26,7 C 51 % 1020,6 hPa 0,0 l/m 2 min 0 min 872 W/m 9,7 km/h (2 Bft) 93,62 %
18.05.2022 13:22 30,1 C 32,2 C 26,7 C 50 % 1020,6 hPa 0,0 l/m 2 min 0 min 888 W/m 6,4 km/h (2 Bft) 91,30 %
18.05.2022 13:24 30,1 C 32,2 C 27,2 C 50 % 1020,6 hPa 0,0 l/m 2 min 0 min 885 W/m 6,4 km/h (2 Bft) 95,74 %
18.05.2022 13:26 30,2 C 32,2 C 27,8 C 51 % 1020,6 hPa 0,0 l/m 2 min 0 min 882 W/m 6,4 km/h (2 Bft) 95,74 %
18.05.2022 13:28 30,1 C 31,7 C 29,4 C 50 % 1020,6 hPa 0,0 l/m 2 min 0 min 885 W/m 16,1 km/h (3 Bft) 91,49 %
18.05.2022 13:30 30,2 C 32,2 C 30,6 C 51 % 1020,5 hPa 0,0 l/m 2 min 0 min 882 W/m 9,7 km/h (2 Bft) 95,74 %
18.05.2022 13:32 30,2 C 32,2 C 31,7 C 51 % 1020,5 hPa 0,0 l/m 2 min 0 min 891 W/m 6,4 km/h (2 Bft) 95,74 %
18.05.2022 13:34 30,2 C 32,8 C 32,2 C 52 % 1020,5 hPa 0,0 l/m 2 min 0 min 894 W/m 6,4 km/h (2 Bft) 95,74 %
18.05.2022 13:36 30,2 C 31,7 C 32,8 C 50 % 1020,5 hPa 0,0 l/m 2 min 0 min 886 W/m 12,9 km/h (3 Bft) 93,48 %
18.05.2022 13:38 30,3 C 31,7 C 33,9 C 50 % 1020,5 hPa 0,0 l/m 2 min 0 min 888 W/m 6,4 km/h (2 Bft) 97,87 %
18.05.2022 13:40 30,2 C 32,2 C 34,4 C 48 % 1020,5 hPa 0,0 l/m 2 min 0 min 889 W/m 9,7 km/h (2 Bft) 95,74 %
18.05.2022 13:42 30,3 C 32,2 C 35,6 C 47 % 1020,4 hPa 0,0 l/m 2 min 0 min 895 W/m 6,4 km/h (2 Bft) 97,87 %
18.05.2022 13:44 30,3 C 32,8 C 35,6 C 48 % 1020,4 hPa 0,0 l/m 2 min 0 min 904 W/m 6,4 km/h (2 Bft) 97,73 %
18.05.2022 13:46 30,3 C 33,3 C 35,0 C 48 % 1020,4 hPa 0,0 l/m 2 min 0 min 909 W/m 6,4 km/h (2 Bft) 97,87 %
18.05.2022 13:48 30,4 C 32,8 C 32,8 C 50 % 1020,4 hPa 0,0 l/m 2 min 0 min 900 W/m 12,9 km/h (3 Bft) 100,00 %
18.05.2022 13:50 30,5 C 33,3 C 31,1 C 50 % 1020,4 hPa 0,0 l/m 2 min 0 min 876 W/m 19,3 km/h (3 Bft) 100,00 %
18.05.2022 13:52 30,5 C 32,8 C 30,0 C 47 % 1020,4 hPa 0,0 l/m 2 min 0 min 883 W/m 19,3 km/h (3 Bft) 97,87 %
18.05.2022 13:54 30,4 C 32,8 C 29,4 C 48 % 1020,4 hPa 0,0 l/m 2 min 0 min 888 W/m 16,1 km/h (3 Bft) 100,00 %
18.05.2022 13:56 30,4 C 32,8 C 28,9 C 48 % 1020,4 hPa 0,0 l/m 2 min 0 min 892 W/m 12,9 km/h (3 Bft) 100,00 %
18.05.2022 13:58 30,4 C 32,2 C 28,3 C 47 % 1020,3 hPa 0,0 l/m 2 min 0 min 895 W/m 6,4 km/h (2 Bft) 100,00 %
18.05.2022 14:04 30,4 C 33,3 C 27,8 C 49 % 1020,3 hPa 0,0 l/m 5 min 0 min 860 W/m 6,4 km/h (2 Bft) 96,88 %
18.05.2022 14:06 30,5 C 33,3 C 27,2 C 49 % 1020,2 hPa 0,0 l/m 2 min 0 min 867 W/m 6,4 km/h (2 Bft) 100,00 %
18.05.2022 14:08 30,6 C 33,3 C 26,7 C 48 % 1020,2 hPa 0,0 l/m 2 min 0 min 867 W/m 16,1 km/h (3 Bft) 100,00 %
18.05.2022 14:10 30,6 C 33,3 C 26,7 C 47 % 1020,2 hPa 0,0 l/m 2 min 0 min 866 W/m 6,4 km/h (2 Bft) 100,00 %
18.05.2022 14:12 30,6 C 33,3 C 26,7 C 48 % 1020,3 hPa 0,0 l/m 2 min 0 min 868 W/m 12,9 km/h (3 Bft) 97,87 %
18.05.2022 14:14 30,6 C 32,8 C 26,7 C 48 % 1020,2 hPa 0,0 l/m 2 min 0 min 869 W/m 22,5 km/h (4 Bft) 100,00 %
18.05.2022 14:16 30,6 C 33,3 C 26,7 C 48 % 1020,2 hPa 0,0 l/m 2 min 0 min 876 W/m 6,4 km/h (2 Bft) 100,00 %
18.05.2022 14:18 30,6 C 33,3 C 26,7 C 49 % 1020,2 hPa 0,0 l/m 2 min 0 min 881 W/m 9,7 km/h (2 Bft) 100,00 %
18.05.2022 14:20 30,7 C 33,3 C 26,7 C 49 % 1020,1 hPa 0,0 l/m 2 min 0 min 874 W/m 9,7 km/h (2 Bft) 100,00 %
18.05.2022 14:22 30,7 C 32,8 C 26,1 C 48 % 1020,1 hPa 0,0 l/m 2 min 0 min 871 W/m 19,3 km/h (3 Bft) 100,00 %
18.05.2022 14:24 30,7 C 32,8 C 26,1 C 48 % 1020,1 hPa 0,0 l/m 2 min 0 min 871 W/m 6,4 km/h (2 Bft) 100,00 %
18.05.2022 14:26 30,7 C 32,8 C 26,1 C 49 % 1020,0 hPa 0,0 l/m 2 min 0 min 872 W/m 6,4 km/h (2 Bft) 100,00 %
18.05.2022 14:28 30,7 C 33,9 C 26,1 C 48 % 1020,0 hPa 0,0 l/m 2 min 0 min 890 W/m 9,7 km/h (2 Bft) 97,87 %
18.05.2022 14:30 30,7 C 34,4 C 26,1 C 49 % 1020,1 hPa 0,0 l/m 2 min 0 min 909 W/m 6,4 km/h (2 Bft) 100,00 %
18.05.2022 14:32 30,8 C 33,9 C 26,1 C 48 % 1020,1 hPa 0,0 l/m 2 min 0 min 919 W/m 12,9 km/h (3 Bft) 97,83 %
18.05.2022 14:34 30,8 C 33,9 C 26,1 C 49 % 1020,1 hPa 0,0 l/m 2 min 0 min 918 W/m 12,9 km/h (3 Bft) 100,00 %
18.05.2022 14:36 30,8 C 33,9 C 26,1 C 49 % 1020,1 hPa 0,0 l/m 2 min 0 min 904 W/m 6,4 km/h (2 Bft) 97,87 %
18.05.2022 14:38 30,8 C 33,3 C 26,1 C 48 % 1020,1 hPa 0,0 l/m 2 min 0 min 911 W/m 22,5 km/h (4 Bft) 97,87 %
18.05.2022 14:40 30,8 C 33,3 C 26,1 C 48 % 1020,1 hPa 0,0 l/m 2 min 0 min 898 W/m 9,7 km/h (2 Bft) 100,00 %
18.05.2022 14:42 30,8 C 33,3 C 26,1 C 49 % 1020,1 hPa 0,0 l/m 2 min 0 min 877 W/m 12,9 km/h (3 Bft) 100,00 %
18.05.2022 14:44 30,8 C 31,7 C 26,1 C 48 % 1020,1 hPa 0,0 l/m 2 min 0 min 759 W/m 22,5 km/h (4 Bft) 100,00 %
18.05.2022 14:46 30,8 C 30,6 C 25,6 C 48 % 1020,1 hPa 0,0 l/m 0 min 0 min 162 W/m 6,4 km/h (2 Bft) 97,87 %
18.05.2022 14:48 30,7 C 31,7 C 25,6 C 49 % 1020,1 hPa 0,0 l/m 2 min 0 min 482 W/m 16,1 km/h (3 Bft) 100,00 %
18.05.2022 14:50 30,7 C 32,2 C 26,1 C 50 % 1020,1 hPa 0,0 l/m 2 min 0 min 881 W/m 12,9 km/h (3 Bft) 100,00 %
18.05.2022 14:52 30,7 C 32,8 C 26,1 C 49 % 1020,1 hPa 0,0 l/m 2 min 0 min 881 W/m 12,9 km/h (3 Bft) 100,00 %
18.05.2022 14:54 30,7 C 32,8 C 26,1 C 48 % 1020,1 hPa 0,0 l/m 2 min 0 min 857 W/m 12,9 km/h (3 Bft) 100,00 %
18.05.2022 14:56 30,8 C 33,3 C 26,1 C 49 % 1020,0 hPa 0,0 l/m 2 min 0 min 862 W/m 3,2 km/h (1 Bft) 100,00 %
18.05.2022 14:58 30,8 C 32,8 C 25,6 C 48 % 1020,1 hPa 0,0 l/m 2 min 0 min 712 W/m 3,2 km/h (1 Bft) 100,00 %
18.05.2022 15:00 30,8 C 32,2 C 25,6 C 47 % 1020,0 hPa 0,0 l/m 0 min 0 min 369 W/m 16,1 km/h (3 Bft) 100,00 %
18.05.2022 15:02 30,8 C 31,1 C 25,6 C 47 % 1020,1 hPa 0,0 l/m 0 min 0 min 337 W/m 6,4 km/h (2 Bft) 97,92 %
18.05.2022 15:04 30,7 C 30,6 C 25,6 C 47 % 1020,1 hPa 0,0 l/m 0 min 0 min 222 W/m 12,9 km/h (3 Bft) 100,00 %
18.05.2022 15:06 30,6 C 30,6 C 25,6 C 47 % 1020,1 hPa 0,0 l/m 0 min 0 min 265 W/m 16,1 km/h (3 Bft) 93,62 %
18.05.2022 15:08 30,5 C 31,1 C 25,6 C 48 % 1020,2 hPa 0,0 l/m 0 min 0 min 382 W/m 12,9 km/h (3 Bft) 97,83 %
18.05.2022 15:10 30,4 C 31,7 C 25,6 C 49 % 1020,1 hPa 0,0 l/m 2 min 0 min 847 W/m 6,4 km/h (2 Bft) 100,00 %
18.05.2022 15:12 30,5 C 32,8 C 25,6 C 49 % 1020,1 hPa 0,0 l/m 2 min 0 min 848 W/m 12,9 km/h (3 Bft) 93,62 %
18.05.2022 15:14 30,6 C 32,8 C 25,6 C 48 % 1020,1 hPa 0,0 l/m 2 min 0 min 782 W/m 6,4 km/h (2 Bft) 97,87 %
18.05.2022 15:16 30,6 C 32,2 C 25,6 C 49 % 1020,0 hPa 0,0 l/m 2 min 0 min 752 W/m 6,4 km/h (2 Bft) 93,62 %
18.05.2022 15:18 30,6 C 31,7 C 25,6 C 48 % 1020,1 hPa 0,0 l/m 0 min 0 min 245 W/m 19,3 km/h (3 Bft) 95,74 %
18.05.2022 15:20 30,5 C 31,1 C 25,6 C 47 % 1020,0 hPa 0,0 l/m 0 min 0 min 238 W/m 3,2 km/h (1 Bft) 95,65 %
18.05.2022 15:22 30,4 C 31,7 C 25,6 C 48 % 1020,0 hPa 0,0 l/m 0 min 0 min 243 W/m 12,9 km/h (3 Bft) 93,62 %
18.05.2022 15:24 30,4 C 31,7 C 25,0 C 47 % 1020,0 hPa 0,0 l/m 2 min 0 min 737 W/m 6,4 km/h (2 Bft) 89,36 %
18.05.2022 15:26 30,4 C 32,2 C 25,0 C 48 % 1020,0 hPa 0,0 l/m 2 min 0 min 758 W/m 6,4 km/h (2 Bft) 93,62 %
18.05.2022 15:28 30,3 C 31,1 C 25,0 C 48 % 1020,0 hPa 0,0 l/m 0 min 0 min 355 W/m 3,2 km/h (1 Bft) 93,62 %
18.05.2022 15:30 30,3 C 32,2 C 25,0 C 49 % 1020,0 hPa 0,0 l/m 2 min 0 min 580 W/m 9,7 km/h (2 Bft) 93,62 %
18.05.2022 15:32 30,3 C 32,8 C 25,6 C 48 % 1019,9 hPa 0,0 l/m 2 min 0 min 864 W/m 6,4 km/h (2 Bft) 93,48 %
18.05.2022 15:34 30,4 C 33,9 C 25,6 C 48 % 1019,9 hPa 0,0 l/m 2 min 0 min 857 W/m 6,4 km/h (2 Bft) 93,62 %
18.05.2022 15:36 30,6 C 33,9 C 26,1 C 48 % 1019,9 hPa 0,0 l/m 2 min 0 min 851 W/m 16,1 km/h (3 Bft) 87,23 %
18.05.2022 15:38 30,7 C 33,3 C 25,6 C 48 % 1019,9 hPa 0,0 l/m 2 min 0 min 854 W/m 6,4 km/h (2 Bft) 93,62 %
18.05.2022 15:40 30,7 C 32,2 C 25,6 C 47 % 1019,9 hPa 0,0 l/m 0 min 0 min 353 W/m 12,9 km/h (3 Bft) 93,62 %
18.05.2022 15:42 30,7 C 31,1 C 25,6 C 47 % 1019,9 hPa 0,0 l/m 0 min 0 min 235 W/m 12,9 km/h (3 Bft) 93,62 %
18.05.2022 15:44 30,6 C 30,6 C 25,6 C 46 % 1019,9 hPa 0,0 l/m 0 min 0 min 224 W/m 6,4 km/h (2 Bft) 93,48 %
18.05.2022 15:46 30,5 C 30,6 C 25,6 C 48 % 1019,9 hPa 0,0 l/m 0 min 0 min 235 W/m 3,2 km/h (1 Bft) 93,62 %
18.05.2022 15:48 30,5 C 30,6 C 25,0 C 49 % 1019,8 hPa 0,0 l/m 0 min 0 min 236 W/m 0,0 km/h (0 Bft) 95,74 %
18.05.2022 15:50 30,4 C 30,6 C 25,0 C 47 % 1019,8 hPa 0,0 l/m 0 min 0 min 250 W/m 0,0 km/h (0 Bft) 95,74 %
18.05.2022 15:52 30,4 C 31,1 C 25,0 C 47 % 1019,9 hPa 0,0 l/m 0 min 0 min 251 W/m 9,7 km/h (2 Bft) 93,62 %
18.05.2022 15:54 30,4 C 32,2 C 25,6 C 48 % 1019,8 hPa 0,0 l/m 2 min 0 min 804 W/m 6,4 km/h (2 Bft) 93,62 %
18.05.2022 15:56 30,3 C 31,7 C 25,6 C 47 % 1019,7 hPa 0,0 l/m 2 min 0 min 780 W/m 12,9 km/h (3 Bft) 95,65 %
18.05.2022 15:58 30,3 C 31,7 C 25,6 C 47 % 1019,7 hPa 0,0 l/m 2 min 0 min 573 W/m 3,2 km/h (1 Bft) 95,74 %
18.05.2022 16:00 30,4 C 31,7 C 25,6 C 48 % 1019,7 hPa 0,0 l/m 0 min 0 min 310 W/m 6,4 km/h (2 Bft) 95,74 %
18.05.2022 16:02 30,4 C 32,8 C 25,6 C 48 % 1019,7 hPa 0,0 l/m 2 min 0 min 500 W/m 3,2 km/h (1 Bft) 95,83 %
18.05.2022 16:04 30,4 C 33,3 C 25,6 C 47 % 1019,7 hPa 0,0 l/m 2 min 0 min 742 W/m 6,4 km/h (2 Bft) 97,87 %
18.05.2022 16:06 30,4 C 33,3 C 25,6 C 47 % 1019,7 hPa 0,0 l/m 2 min 0 min 763 W/m 6,4 km/h (2 Bft) 95,83 %
18.05.2022 16:08 30,5 C 32,8 C 25,6 C 48 % 1019,7 hPa 0,0 l/m 2 min 0 min 470 W/m 9,7 km/h (2 Bft) 97,83 %
18.05.2022 16:10 30,5 C 32,2 C 25,6 C 47 % 1019,6 hPa 0,0 l/m 0 min 0 min 277 W/m 19,3 km/h (3 Bft) 95,74 %
18.05.2022 16:12 30,5 C 32,8 C 25,6 C 47 % 1019,6 hPa 0,0 l/m 2 min 0 min 555 W/m 16,1 km/h (3 Bft) 100,00 %
18.05.2022 16:14 30,6 C 33,9 C 26,1 C 47 % 1019,6 hPa 0,0 l/m 2 min 0 min 731 W/m 16,1 km/h (3 Bft) 100,00 %
18.05.2022 16:16 30,6 C 33,3 C 26,1 C 47 % 1019,7 hPa 0,0 l/m 2 min 0 min 693 W/m 12,9 km/h (3 Bft) 97,87 %
18.05.2022 16:18 30,6 C 32,2 C 26,1 C 47 % 1019,6 hPa 0,0 l/m 2 min 0 min 424 W/m 6,4 km/h (2 Bft) 97,87 %
18.05.2022 16:20 30,6 C 31,1 C 25,6 C 47 % 1019,6 hPa 0,0 l/m 0 min 0 min 250 W/m 9,7 km/h (2 Bft) 100,00 %
18.05.2022 16:22 30,5 C 30,6 C 25,6 C 47 % 1019,6 hPa 0,0 l/m 0 min 0 min 241 W/m 9,7 km/h (2 Bft) 100,00 %
18.05.2022 16:24 30,4 C 30,0 C 25,6 C 47 % 1019,6 hPa 0,0 l/m 0 min 0 min 241 W/m 6,4 km/h (2 Bft) 100,00 %
18.05.2022 16:26 30,4 C 30,0 C 25,6 C 48 % 1019,6 hPa 0,0 l/m 0 min 0 min 264 W/m 6,4 km/h (2 Bft) 97,87 %
18.05.2022 16:28 30,3 C 31,1 C 25,6 C 47 % 1019,6 hPa 0,0 l/m 0 min 0 min 310 W/m 3,2 km/h (1 Bft) 100,00 %
18.05.2022 16:30 30,3 C 32,8 C 25,6 C 47 % 1019,6 hPa 0,0 l/m 2 min 0 min 704 W/m 0,0 km/h (0 Bft) 100,00 %
18.05.2022 16:32 30,3 C 33,9 C 25,6 C 48 % 1019,5 hPa 0,0 l/m 2 min 0 min 732 W/m 3,2 km/h (1 Bft) 100,00 %
18.05.2022 16:34 30,3 C 35,0 C 25,6 C 48 % 1019,5 hPa 0,0 l/m 2 min 0 min 739 W/m 6,4 km/h (2 Bft) 100,00 %
18.05.2022 16:36 30,3 C 33,9 C 25,6 C 48 % 1019,5 hPa 0,0 l/m 2 min 0 min 680 W/m 6,4 km/h (2 Bft) 100,00 %
18.05.2022 16:40 30,3 C 32,2 C 25,6 C 47 % 1019,5 hPa 0,0 l/m 0 min 0 min 300 W/m 6,4 km/h (2 Bft) 100,00 %
18.05.2022 16:45 30,3 C 33,9 C 25,6 C 47 % 1019,5 hPa 0,0 l/m 5 min 0 min 589 W/m 3,2 km/h (1 Bft) 100,00 %
18.05.2022 16:50 30,4 C 33,9 C 25,6 C 47 % 1019,4 hPa 0,0 l/m 5 min 0 min 499 W/m 6,4 km/h (2 Bft) 100,00 %
18.05.2022 16:55 30,4 C 34,4 C 25,6 C 46 % 1019,3 hPa 0,0 l/m 5 min 0 min 461 W/m 6,4 km/h (2 Bft) 100,00 %
18.05.2022 17:00 30,6 C 35,0 C 25,6 C 47 % 1019,3 hPa 0,0 l/m 5 min 0 min 570 W/m 3,2 km/h (1 Bft) 100,00 %
18.05.2022 17:05 30,7 C 35,6 C 25,6 C 47 % 1019,3 hPa 0,0 l/m 5 min 0 min 624 W/m 6,4 km/h (2 Bft) 100,00 %
18.05.2022 17:10 30,9 C 35,6 C 26,1 C 48 % 1019,3 hPa 0,0 l/m 5 min 0 min 586 W/m 6,4 km/h (2 Bft) 100,00 %
18.05.2022 17:15 30,8 C 32,8 C 25,6 C 47 % 1019,2 hPa 0,0 l/m 0 min 0 min 265 W/m 9,7 km/h (2 Bft) 98,25 %
18.05.2022 17:22 30,7 C 33,9 C 25,6 C 47 % 1019,2 hPa 0,0 l/m 5 min 0 min 494 W/m 6,4 km/h (2 Bft) 96,15 %
18.05.2022 17:24 30,7 C 33,9 C 25,6 C 47 % 1019,3 hPa 0,0 l/m 2 min 0 min 476 W/m 3,2 km/h (1 Bft) 95,65 %
18.05.2022 17:26 30,6 C 32,8 C 25,6 C 47 % 1019,2 hPa 0,0 l/m 2 min 0 min 329 W/m 3,2 km/h (1 Bft) 100,00 %
18.05.2022 17:28 30,5 C 31,7 C 25,6 C 47 % 1019,2 hPa 0,0 l/m 0 min 0 min 223 W/m 3,2 km/h (1 Bft) 100,00 %
18.05.2022 17:30 30,4 C 31,1 C 25,0 C 48 % 1019,2 hPa 0,0 l/m 0 min 0 min 156 W/m 3,2 km/h (1 Bft) 97,87 %
18.05.2022 17:32 30,3 C 30,6 C 25,0 C 47 % 1019,2 hPa 0,0 l/m 0 min 0 min 159 W/m 3,2 km/h (1 Bft) 55,56 %
18.05.2022 17:34 30,3 C 30,6 C 25,0 C 48 % 1019,2 hPa 0,0 l/m 0 min 0 min 166 W/m 6,4 km/h (2 Bft) 100,00 %
18.05.2022 17:36 30,3 C 30,6 C 25,0 C 49 % 1019,2 hPa 0,0 l/m 0 min 0 min 175 W/m 6,4 km/h (2 Bft) 97,83 %
18.05.2022 17:38 30,2 C 30,6 C 24,4 C 48 % 1019,2 hPa 0,0 l/m 0 min 0 min 259 W/m 3,2 km/h (1 Bft) 100,00 %
18.05.2022 17:40 30,2 C 30,0 C 24,4 C 48 % 1019,2 hPa 0,0 l/m 0 min 0 min 210 W/m 0,0 km/h (0 Bft) 97,87 %
18.05.2022 17:42 30,2 C 30,0 C 24,4 C 50 % 1019,2 hPa 0,0 l/m 0 min 0 min 198 W/m 3,2 km/h (1 Bft) 100,00 %
18.05.2022 17:44 30,1 C 30,0 C 24,4 C 49 % 1019,2 hPa 0,0 l/m 0 min 0 min 167 W/m 6,4 km/h (2 Bft) 55,56 %
18.05.2022 17:46 30,0 C 29,4 C 24,4 C 47 % 1019,2 hPa 0,0 l/m 0 min 0 min 163 W/m 3,2 km/h (1 Bft) 100,00 %
18.05.2022 17:48 29,9 C 29,4 C 24,4 C 47 % 1019,2 hPa 0,0 l/m 0 min 0 min 194 W/m 3,2 km/h (1 Bft) 97,83 %
18.05.2022 17:50 29,9 C 29,4 C 24,4 C 48 % 1019,2 hPa 0,0 l/m 0 min 0 min 218 W/m 6,4 km/h (2 Bft) 100,00 %
18.05.2022 17:52 29,9 C 29,4 C 24,4 C 49 % 1019,2 hPa 0,0 l/m 0 min 0 min 192 W/m 3,2 km/h (1 Bft) 100,00 %
18.05.2022 17:54 29,9 C 29,4 C 24,4 C 50 % 1019,2 hPa 0,0 l/m 0 min 0 min 194 W/m 3,2 km/h (1 Bft) 95,74 %
18.05.2022 17:56 29,8 C 29,4 C 24,4 C 49 % 1019,2 hPa 0,0 l/m 0 min 0 min 200 W/m 3,2 km/h (1 Bft) 97,87 %
18.05.2022 17:58 29,7 C 29,4 C 24,4 C 49 % 1019,1 hPa 0,0 l/m 0 min 0 min 193 W/m 3,2 km/h (1 Bft) 97,87 %
18.05.2022 18:00 29,7 C 28,9 C 24,4 C 51 % 1019,1 hPa 0,0 l/m 0 min 0 min 190 W/m 0,0 km/h (0 Bft) 97,87 %
18.05.2022 18:02 29,6 C 28,9 C 24,4 C 51 % 1019,2 hPa 0,0 l/m 0 min 0 min 184 W/m 0,0 km/h (0 Bft) 97,83 %
18.05.2022 18:04 29,6 C 29,4 C 24,4 C 51 % 1019,2 hPa 0,0 l/m 0 min 0 min 210 W/m 3,2 km/h (1 Bft) 97,87 %
18.05.2022 18:07 29,5 C 29,4 C 24,4 C 51 % 1019,2 hPa 0,0 l/m 0 min 0 min 191 W/m 3,2 km/h (1 Bft) 97,14 %
18.05.2022 18:08 29,5 C 29,4 C 24,4 C 51 % 1019,1 hPa 0,0 l/m 0 min 0 min 171 W/m 0,0 km/h (0 Bft) 100,00 %
18.05.2022 18:10 29,5 C 28,9 C 23,9 C 50 % 1019,2 hPa 0,0 l/m 0 min 0 min 168 W/m 0,0 km/h (0 Bft) 97,87 %
18.05.2022 18:12 29,5 C 28,9 C 23,9 C 51 % 1019,2 hPa 0,0 l/m 0 min 0 min 168 W/m 6,4 km/h (2 Bft) 95,65 %
18.05.2022 18:14 29,5 C 28,9 C 23,9 C 51 % 1019,2 hPa 0,0 l/m 0 min 0 min 162 W/m 3,2 km/h (1 Bft) 93,62 %
18.05.2022 18:16 29,4 C 28,9 C 23,9 C 51 % 1019,2 hPa 0,0 l/m 0 min 0 min 148 W/m 3,2 km/h (1 Bft) 97,87 %
18.05.2022 18:18 29,4 C 28,3 C 23,9 C 51 % 1019,1 hPa 0,0 l/m 0 min 0 min 134 W/m 0,0 km/h (0 Bft) 97,87 %
18.05.2022 18:20 29,4 C 28,3 C 23,9 C 51 % 1019,2 hPa 0,0 l/m 0 min 0 min 126 W/m 0,0 km/h (0 Bft) 95,74 %
18.05.2022 18:22 29,4 C 28,3 C 23,9 C 52 % 1019,2 hPa 0,0 l/m 0 min 0 min 119 W/m 0,0 km/h (0 Bft) 95,74 %
18.05.2022 18:24 29,4 C 28,3 C 23,9 C 53 % 1019,1 hPa 0,0 l/m 0 min 0 min 108 W/m 6,4 km/h (2 Bft) 97,83 %
18.05.2022 18:26 29,4 C 28,3 C 23,9 C 52 % 1019,1 hPa 0,0 l/m 0 min 0 min 96 W/m 3,2 km/h (1 Bft) 97,87 %
18.05.2022 18:28 29,4 C 28,3 C 23,9 C 54 % 1019,1 hPa 0,0 l/m 0 min 0 min 88 W/m 0,0 km/h (0 Bft) 97,87 %
18.05.2022 18:30 29,3 C 27,8 C 23,3 C 53 % 1019,2 hPa 0,0 l/m 0 min 0 min 86 W/m 3,2 km/h (1 Bft) 93,62 %
18.05.2022 18:32 29,3 C 27,8 C 23,3 C 52 % 1019,1 hPa 0,0 l/m 0 min 0 min 93 W/m 3,2 km/h (1 Bft) 93,62 %
18.05.2022 18:34 29,2 C 27,8 C 23,9 C 52 % 1019,2 hPa 0,0 l/m 0 min 0 min 99 W/m 3,2 km/h (1 Bft) 95,74 %
18.05.2022 18:36 29,2 C 27,8 C 23,9 C 51 % 1019,1 hPa 0,0 l/m 0 min 0 min 98 W/m 3,2 km/h (1 Bft) 95,65 %
18.05.2022 18:38 29,2 C 27,8 C 23,9 C 52 % 1019,1 hPa 0,0 l/m 0 min 0 min 92 W/m 3,2 km/h (1 Bft) 93,62 %
18.05.2022 18:40 29,1 C 27,8 C 23,9 C 51 % 1019,2 hPa 0,0 l/m 0 min 0 min 92 W/m 0,0 km/h (0 Bft) 95,74 %
18.05.2022 18:42 29,1 C 27,8 C 23,3 C 52 % 1019,1 hPa 0,0 l/m 0 min 0 min 100 W/m 3,2 km/h (1 Bft) 93,62 %
18.05.2022 18:44 29,1 C 28,3 C 23,3 C 52 % 1019,1 hPa 0,0 l/m 0 min 0 min 136 W/m 3,2 km/h (1 Bft) 95,74 %
18.05.2022 18:46 29,0 C 28,3 C 23,3 C 51 % 1019,1 hPa 0,0 l/m 0 min 0 min 126 W/m 3,2 km/h (1 Bft) 97,87 %
18.05.2022 18:48 29,0 C 28,3 C 23,3 C 52 % 1019,1 hPa 0,0 l/m 0 min 0 min 110 W/m 3,2 km/h (1 Bft) 97,83 %
18.05.2022 18:50 28,9 C 28,3 C 23,3 C 52 % 1019,1 hPa 0,0 l/m 0 min 0 min 104 W/m 3,2 km/h (1 Bft) 93,62 %
18.05.2022 18:52 28,9 C 28,3 C 23,3 C 52 % 1019,1 hPa 0,0 l/m 0 min 0 min 109 W/m 6,4 km/h (2 Bft) 95,74 %
18.05.2022 18:54 28,9 C 28,3 C 23,3 C 54 % 1019,1 hPa 0,0 l/m 0 min 0 min 118 W/m 3,2 km/h (1 Bft) 93,62 %
18.05.2022 18:56 28,8 C 28,3 C 23,3 C 54 % 1019,1 hPa 0,0 l/m 0 min 0 min 127 W/m 6,4 km/h (2 Bft) 95,74 %
18.05.2022 18:58 28,8 C 28,3 C 22,8 C 55 % 1019,0 hPa 0,0 l/m 0 min 0 min 132 W/m 6,4 km/h (2 Bft) 95,74 %
18.05.2022 19:00 28,8 C 28,3 C 22,8 C 56 % 1019,1 hPa 0,0 l/m 0 min 0 min 133 W/m 3,2 km/h (1 Bft) 95,65 %
18.05.2022 19:02 28,7 C 28,3 C 22,8 C 54 % 1019,0 hPa 0,0 l/m 0 min 0 min 127 W/m 6,4 km/h (2 Bft) 95,74 %
18.05.2022 19:04 28,7 C 28,3 C 22,8 C 58 % 1019,0 hPa 0,0 l/m 0 min 0 min 127 W/m 0,0 km/h (0 Bft) 97,87 %
18.05.2022 19:06 28,7 C 28,3 C 22,8 C 56 % 1019,0 hPa 0,0 l/m 0 min 0 min 138 W/m 3,2 km/h (1 Bft) 93,62 %
18.05.2022 19:08 28,6 C 28,3 C 22,8 C 54 % 1019,0 hPa 0,0 l/m 0 min 0 min 146 W/m 3,2 km/h (1 Bft) 95,74 %
18.05.2022 19:10 28,6 C 28,3 C 22,8 C 54 % 1019,0 hPa 0,0 l/m 2 min 0 min 154 W/m 3,2 km/h (1 Bft) 95,74 %
18.05.2022 19:12 28,6 C 28,3 C 22,8 C 55 % 1019,0 hPa 0,0 l/m 2 min 0 min 157 W/m 12,9 km/h (3 Bft) 93,48 %
18.05.2022 19:14 28,6 C 28,3 C 22,8 C 54 % 1019,0 hPa 0,0 l/m 2 min 0 min 164 W/m 3,2 km/h (1 Bft) 95,74 %
18.05.2022 19:16 28,6 C 28,3 C 22,8 C 54 % 1019,0 hPa 0,0 l/m 2 min 0 min 164 W/m 3,2 km/h (1 Bft) 95,74 %
18.05.2022 19:18 28,6 C 27,8 C 22,8 C 55 % 1019,0 hPa 0,0 l/m 2 min 0 min 160 W/m 12,9 km/h (3 Bft) 95,74 %
18.05.2022 19:20 28,6 C 27,8 C 22,8 C 56 % 1019,0 hPa 0,0 l/m 2 min 0 min 154 W/m 9,7 km/h (2 Bft) 95,74 %
18.05.2022 19:22 28,6 C 27,8 C 22,8 C 56 % 1018,9 hPa 0,0 l/m 2 min 0 min 144 W/m 9,7 km/h (2 Bft) 95,74 %
18.05.2022 19:24 28,5 C 27,8 C 23,3 C 57 % 1019,0 hPa 0,0 l/m 2 min 0 min 143 W/m 3,2 km/h (1 Bft) 95,65 %
18.05.2022 19:26 28,4 C 27,8 C 23,3 C 56 % 1019,0 hPa 0,0 l/m 2 min 0 min 141 W/m 9,7 km/h (2 Bft) 93,62 %
18.05.2022 19:28 28,4 C 27,8 C 23,3 C 56 % 1019,0 hPa 0,0 l/m 2 min 0 min 135 W/m 12,9 km/h (3 Bft) 95,74 %
18.05.2022 19:30 28,3 C 27,2 C 23,3 C 57 % 1019,0 hPa 0,0 l/m 2 min 0 min 138 W/m 12,9 km/h (3 Bft) 100,00 %
18.05.2022 19:32 28,3 C 27,2 C 22,8 C 58 % 1019,0 hPa 0,0 l/m 2 min 0 min 131 W/m 9,7 km/h (2 Bft) 100,00 %
18.05.2022 19:34 28,2 C 27,2 C 22,8 C 57 % 1019,0 hPa 0,0 l/m 0 min 0 min 122 W/m 9,7 km/h (2 Bft) 100,00 %
18.05.2022 19:36 28,1 C 27,2 C 22,8 C 57 % 1019,0 hPa 0,0 l/m 0 min 0 min 116 W/m 16,1 km/h (3 Bft) 100,00 %
18.05.2022 19:38 28,1 C 27,2 C 22,8 C 58 % 1019,0 hPa 0,0 l/m 0 min 0 min 114 W/m 12,9 km/h (3 Bft) 100,00 %
18.05.2022 19:40 28,0 C 27,2 C 22,8 C 58 % 1019,1 hPa 0,0 l/m 2 min 0 min 116 W/m 6,4 km/h (2 Bft) 100,00 %
18.05.2022 19:42 27,9 C 27,2 C 22,8 C 58 % 1019,1 hPa 0,0 l/m 2 min 0 min 119 W/m 9,7 km/h (2 Bft) 100,00 %
18.05.2022 19:44 27,9 C 27,2 C 22,8 C 59 % 1019,1 hPa 0,0 l/m 2 min 0 min 124 W/m 12,9 km/h (3 Bft) 100,00 %
18.05.2022 19:46 27,8 C 27,2 C 22,8 C 59 % 1019,0 hPa 0,0 l/m 2 min 0 min 127 W/m 22,5 km/h (4 Bft) 100,00 %
18.05.2022 19:54 27,6 C 26,7 C 22,8 C 61 % 1019,1 hPa 0,0 l/m 5 min 0 min 120 W/m 6,4 km/h (2 Bft) 100,00 %
18.05.2022 19:56 27,4 C 26,7 C 22,8 C 61 % 1019,1 hPa 0,0 l/m 2 min 0 min 118 W/m 16,1 km/h (3 Bft) 100,00 %
18.05.2022 19:58 27,4 C 26,7 C 22,2 C 61 % 1019,1 hPa 0,0 l/m 2 min 0 min 116 W/m 16,1 km/h (3 Bft) 100,00 %
18.05.2022 20:00 27,3 C 26,7 C 22,2 C 62 % 1019,1 hPa 0,0 l/m 2 min 0 min 115 W/m 16,1 km/h (3 Bft) 100,00 %
18.05.2022 20:02 27,3 C 26,7 C 22,2 C 62 % 1019,1 hPa 0,0 l/m 2 min 0 min 111 W/m 9,7 km/h (2 Bft) 100,00 %
18.05.2022 20:04 27,2 C 26,7 C 22,2 C 62 % 1019,2 hPa 0,0 l/m 2 min 0 min 106 W/m 12,9 km/h (3 Bft) 100,00 %
18.05.2022 20:06 27,2 C 26,7 C 22,2 C 62 % 1019,2 hPa 0,0 l/m 2 min 0 min 100 W/m 6,4 km/h (2 Bft) 100,00 %
18.05.2022 20:08 27,1 C 26,7 C 22,2 C 63 % 1019,2 hPa 0,0 l/m 2 min 0 min 95 W/m 9,7 km/h (2 Bft) 100,00 %
18.05.2022 20:10 27,1 C 26,1 C 22,2 C 63 % 1019,2 hPa 0,0 l/m 2 min 0 min 90 W/m 12,9 km/h (3 Bft) 100,00 %
18.05.2022 20:12 27,0 C 26,1 C 22,2 C 63 % 1019,2 hPa 0,0 l/m 2 min 0 min 84 W/m 6,4 km/h (2 Bft) 97,87 %
18.05.2022 20:14 27,0 C 26,1 C 22,2 C 64 % 1019,2 hPa 0,0 l/m 2 min 0 min 79 W/m 9,7 km/h (2 Bft) 100,00 %
18.05.2022 20:16 26,9 C 26,1 C 22,2 C 64 % 1019,2 hPa 0,0 l/m 2 min 0 min 75 W/m 9,7 km/h (2 Bft) 100,00 %
18.05.2022 20:18 26,9 C 26,1 C 21,7 C 64 % 1019,3 hPa 0,0 l/m 2 min 0 min 73 W/m 12,9 km/h (3 Bft) 100,00 %
18.05.2022 20:20 26,9 C 26,1 C 21,7 C 65 % 1019,2 hPa 0,0 l/m 2 min 0 min 70 W/m 9,7 km/h (2 Bft) 97,83 %
18.05.2022 20:22 26,8 C 26,1 C 21,7 C 65 % 1019,3 hPa 0,0 l/m 2 min 0 min 68 W/m 6,4 km/h (2 Bft) 100,00 %
18.05.2022 20:24 26,8 C 25,6 C 21,7 C 65 % 1019,3 hPa 0,0 l/m 2 min 0 min 65 W/m 6,4 km/h (2 Bft) 100,00 %
18.05.2022 20:26 26,7 C 25,6 C 21,7 C 65 % 1019,3 hPa 0,0 l/m 2 min 0 min 62 W/m 6,4 km/h (2 Bft) 100,00 %
18.05.2022 20:28 26,7 C 25,6 C 21,7 C 65 % 1019,3 hPa 0,0 l/m 2 min 0 min 57 W/m 6,4 km/h (2 Bft) 100,00 %
18.05.2022 20:30 26,6 C 25,6 C 21,7 C 65 % 1019,3 hPa 0,0 l/m 0 min 0 min 53 W/m 6,4 km/h (2 Bft) 93,62 %
18.05.2022 20:32 26,6 C 25,6 C 21,7 C 65 % 1019,3 hPa 0,0 l/m 0 min 0 min 48 W/m 3,2 km/h (1 Bft) 97,83 %
18.05.2022 20:34 26,5 C 25,6 C 21,1 C 66 % 1019,3 hPa 0,0 l/m 0 min 0 min 43 W/m 6,4 km/h (2 Bft) 95,74 %
18.05.2022 20:36 26,4 C 25,0 C 21,1 C 65 % 1019,3 hPa 0,0 l/m 0 min 0 min 39 W/m 6,4 km/h (2 Bft) 97,87 %
18.05.2022 20:38 26,3 C 25,0 C 21,1 C 66 % 1019,3 hPa 0,0 l/m 0 min 0 min 35 W/m 6,4 km/h (2 Bft) 97,87 %
18.05.2022 20:40 26,3 C 25,0 C 21,1 C 66 % 1019,3 hPa 0,0 l/m 0 min 0 min 32 W/m 6,4 km/h (2 Bft) 97,87 %
18.05.2022 20:42 26,2 C 25,0 C 21,1 C 67 % 1019,2 hPa 0,0 l/m 0 min 0 min 29 W/m 3,2 km/h (1 Bft) 97,87 %
18.05.2022 20:44 26,2 C 25,0 C 21,1 C 67 % 1019,2 hPa 0,0 l/m 0 min 0 min 26 W/m 6,4 km/h (2 Bft) 97,83 %
18.05.2022 20:46 26,1 C 25,0 C 20,6 C 67 % 1019,2 hPa 0,0 l/m 0 min 0 min 26 W/m 3,2 km/h (1 Bft) 95,74 %
18.05.2022 20:48 26,1 C 25,0 C 20,6 C 67 % 1019,2 hPa 0,0 l/m 0 min 0 min 24 W/m 9,7 km/h (2 Bft) 93,62 %
18.05.2022 20:50 26,1 C 25,0 C 20,6 C 68 % 1019,1 hPa 0,0 l/m 0 min 0 min 21 W/m 3,2 km/h (1 Bft) 97,87 %
18.05.2022 20:52 26,1 C 25,0 C 20,6 C 67 % 1019,2 hPa 0,0 l/m 0 min 0 min 20 W/m 12,9 km/h (3 Bft) 95,74 %
18.05.2022 20:54 26,1 C 25,0 C 20,6 C 67 % 1019,2 hPa 0,0 l/m 0 min 0 min 19 W/m 6,4 km/h (2 Bft) 95,74 %
18.05.2022 20:56 26,0 C 25,0 C 20,6 C 67 % 1019,2 hPa 0,0 l/m 0 min 0 min 17 W/m 3,2 km/h (1 Bft) 95,65 %
18.05.2022 20:58 26,0 C 25,0 C 20,6 C 67 % 1019,2 hPa 0,0 l/m 0 min 0 min 16 W/m 3,2 km/h (1 Bft) 93,62 %
18.05.2022 21:00 25,9 C 25,0 C 20,6 C 68 % 1019,2 hPa 0,0 l/m 0 min 0 min 14 W/m 6,4 km/h (2 Bft) 95,74 %
18.05.2022 21:02 25,9 C 25,0 C 20,6 C 67 % 1019,2 hPa 0,0 l/m 0 min 0 min 13 W/m 3,2 km/h (1 Bft) 95,74 %
18.05.2022 21:04 25,9 C 25,0 C 20,6 C 68 % 1019,2 hPa 0,0 l/m 0 min 0 min 12 W/m 3,2 km/h (1 Bft) 95,12 %
18.05.2022 21:06 25,9 C 25,0 C 20,6 C 68 % 1019,2 hPa 0,0 l/m 0 min 0 min 11 W/m 6,4 km/h (2 Bft) 94,34 %
18.05.2022 21:08 25,9 C 24,4 C 20,6 C 68 % 1019,2 hPa 0,0 l/m 0 min 0 min 10 W/m 12,9 km/h (3 Bft) 97,83 %
18.05.2022 21:10 25,8 C 24,4 C 20,6 C 68 % 1019,2 hPa 0,0 l/m 0 min 0 min 9 W/m 6,4 km/h (2 Bft) 93,62 %
18.05.2022 21:12 25,8 C 24,4 C 20,6 C 68 % 1019,2 hPa 0,0 l/m 0 min 0 min 7 W/m 0,0 km/h (0 Bft) 95,74 %
18.05.2022 21:14 25,8 C 24,4 C 20,0 C 68 % 1019,2 hPa 0,0 l/m 0 min 0 min 5 W/m 6,4 km/h (2 Bft) 95,74 %
18.05.2022 21:16 25,7 C 24,4 C 20,0 C 68 % 1019,2 hPa 0,0 l/m 0 min 0 min 5 W/m 3,2 km/h (1 Bft) 97,87 %
18.05.2022 21:18 25,7 C 24,4 C 20,0 C 68 % 1019,2 hPa 0,0 l/m 0 min 0 min 1 W/m 3,2 km/h (1 Bft) 97,87 %
18.05.2022 21:20 25,7 C 24,4 C 20,0 C 68 % 1019,2 hPa 0,0 l/m 0 min 0 min 0 W/m 3,2 km/h (1 Bft) 97,83 %
18.05.2022 21:22 25,6 C 23,9 C 20,0 C 68 % 1019,2 hPa 0,0 l/m 0 min 0 min 0 W/m 0,0 km/h (0 Bft) 95,74 %
18.05.2022 21:24 25,6 C 23,9 C 20,0 C 68 % 1019,3 hPa 0,0 l/m 0 min 0 min 0 W/m 0,0 km/h (0 Bft) 97,87 %
18.05.2022 21:26 25,6 C 23,9 C 20,0 C 68 % 1019,2 hPa 0,0 l/m 0 min 0 min 0 W/m 3,2 km/h (1 Bft) 100,00 %
18.05.2022 21:28 25,6 C 23,9 C 19,4 C 68 % 1019,2 hPa 0,0 l/m 0 min 0 min 0 W/m 0,0 km/h (0 Bft) 100,00 %
18.05.2022 21:30 25,5 C 23,9 C 19,4 C 68 % 1019,3 hPa 0,0 l/m 0 min 0 min 0 W/m 0,0 km/h (0 Bft) 97,87 %
18.05.2022 21:32 25,5 C 23,9 C 19,4 C 68 % 1019,3 hPa 0,0 l/m 0 min 0 min 0 W/m 3,2 km/h (1 Bft) 100,00 %
18.05.2022 21:34 25,4 C 23,9 C 19,4 C 69 % 1019,3 hPa 0,0 l/m 0 min 0 min 0 W/m 0,0 km/h (0 Bft) 100,00 %
18.05.2022 21:36 25,4 C 23,9 C 18,9 C 69 % 1019,3 hPa 0,0 l/m 0 min 0 min 0 W/m 0,0 km/h (0 Bft) 95,74 %
18.05.2022 21:38 25,4 C 23,9 C 18,9 C 69 % 1019,3 hPa 0,0 l/m 0 min 0 min 0 W/m 3,2 km/h (1 Bft) 97,87 %
18.05.2022 21:40 25,3 C 23,9 C 18,9 C 69 % 1019,3 hPa 0,0 l/m 0 min 0 min 0 W/m 0,0 km/h (0 Bft) 100,00 %
18.05.2022 21:42 25,3 C 23,3 C 18,9 C 70 % 1019,3 hPa 0,0 l/m 0 min 0 min 0 W/m 3,2 km/h (1 Bft) 100,00 %
18.05.2022 21:44 25,3 C 23,3 C 18,9 C 70 % 1019,4 hPa 0,0 l/m 0 min 0 min 0 W/m 0,0 km/h (0 Bft) 97,83 %
18.05.2022 21:46 25,2 C 23,3 C 18,9 C 70 % 1019,4 hPa 0,0 l/m 0 min 0 min 0 W/m 3,2 km/h (1 Bft) 100,00 %
18.05.2022 21:48 25,2 C 23,3 C 18,9 C 69 % 1019,3 hPa 0,0 l/m 0 min 0 min 0 W/m 3,2 km/h (1 Bft) 100,00 %
18.05.2022 21:50 25,2 C 23,3 C 18,9 C 69 % 1019,4 hPa 0,0 l/m 0 min 0 min 0 W/m 6,4 km/h (2 Bft) 97,87 %
18.05.2022 21:52 25,1 C 23,3 C 18,9 C 70 % 1019,3 hPa 0,0 l/m 0 min 0 min 0 W/m 3,2 km/h (1 Bft) 95,74 %
18.05.2022 21:54 25,1 C 23,3 C 18,9 C 70 % 1019,4 hPa 0,0 l/m 0 min 0 min 0 W/m 3,2 km/h (1 Bft) 97,87 %
18.05.2022 21:56 25,0 C 23,3 C 18,9 C 70 % 1019,3 hPa 0,0 l/m 0 min 0 min 0 W/m 3,2 km/h (1 Bft) 97,83 %
18.05.2022 21:58 24,9 C 23,3 C 18,9 C 71 % 1019,3 hPa 0,0 l/m 0 min 0 min 0 W/m 3,2 km/h (1 Bft) 97,87 %
18.05.2022 22:00 24,8 C 23,3 C 18,9 C 70 % 1019,3 hPa 0,0 l/m 0 min 0 min 0 W/m 3,2 km/h (1 Bft) 97,87 %
18.05.2022 22:02 24,8 C 23,3 C 18,9 C 70 % 1019,3 hPa 0,0 l/m 0 min 0 min 0 W/m 3,2 km/h (1 Bft) 95,74 %
18.05.2022 22:04 24,7 C 23,3 C 18,9 C 71 % 1019,2 hPa 0,0 l/m 0 min 0 min 0 W/m 3,2 km/h (1 Bft) 97,56 %
18.05.2022 22:06 24,6 C 23,3 C 18,9 C 71 % 1019,1 hPa 0,0 l/m 0 min 0 min 0 W/m 6,4 km/h (2 Bft) 96,15 %
18.05.2022 22:08 24,6 C 22,8 C 18,9 C 71 % 1019,2 hPa 0,0 l/m 0 min 0 min 0 W/m 6,4 km/h (2 Bft) 95,74 %
18.05.2022 22:10 24,5 C 22,8 C 18,9 C 71 % 1019,2 hPa 0,0 l/m 0 min 0 min 0 W/m 3,2 km/h (1 Bft) 95,74 %
18.05.2022 22:12 24,4 C 22,8 C 18,9 C 72 % 1019,2 hPa 0,0 l/m 0 min 0 min 0 W/m 3,2 km/h (1 Bft) 93,62 %
18.05.2022 22:14 24,4 C 22,8 C 18,9 C 72 % 1019,2 hPa 0,0 l/m 0 min 0 min 0 W/m 6,4 km/h (2 Bft) 97,87 %
18.05.2022 22:16 24,4 C 22,8 C 18,9 C 72 % 1019,2 hPa 0,0 l/m 0 min 0 min 0 W/m 3,2 km/h (1 Bft) 97,87 %
18.05.2022 22:18 24,3 C 22,8 C 18,3 C 72 % 1019,1 hPa 0,0 l/m 0 min 0 min 0 W/m 3,2 km/h (1 Bft) 97,87 %
18.05.2022 22:20 24,3 C 22,8 C 18,3 C 72 % 1019,2 hPa 0,0 l/m 0 min 0 min 0 W/m 3,2 km/h (1 Bft) 97,83 %
18.05.2022 22:22 24,2 C 22,8 C 18,3 C 73 % 1019,2 hPa 0,0 l/m 0 min 0 min 0 W/m 3,2 km/h (1 Bft) 97,87 %
18.05.2022 22:24 24,2 C 22,8 C 18,3 C 73 % 1019,1 hPa 0,0 l/m 0 min 0 min 0 W/m 3,2 km/h (1 Bft) 97,87 %
18.05.2022 22:26 24,2 C 22,8 C 18,3 C 73 % 1019,1 hPa 0,0 l/m 0 min 0 min 0 W/m 0,0 km/h (0 Bft) 97,87 %
18.05.2022 22:28 24,1 C 22,2 C 18,3 C 73 % 1019,2 hPa 0,0 l/m 0 min 0 min 0 W/m 3,2 km/h (1 Bft) 97,87 %
18.05.2022 22:30 24,1 C 22,2 C 18,3 C 73 % 1019,2 hPa 0,0 l/m 0 min 0 min 0 W/m 3,2 km/h (1 Bft) 97,83 %
18.05.2022 22:32 24,0 C 22,2 C 18,3 C 73 % 1019,2 hPa 0,0 l/m 0 min 0 min 0 W/m 3,2 km/h (1 Bft) 97,87 %
18.05.2022 22:34 23,9 C 22,2 C 18,3 C 74 % 1019,2 hPa 0,0 l/m 0 min 0 min 0 W/m 0,0 km/h (0 Bft) 97,87 %
18.05.2022 22:36 23,9 C 22,2 C 17,8 C 74 % 1019,2 hPa 0,0 l/m 0 min 0 min 0 W/m 3,2 km/h (1 Bft) 97,87 %
18.05.2022 22:38 23,8 C 22,2 C 17,8 C 74 % 1019,1 hPa 0,0 l/m 0 min 0 min 0 W/m 0,0 km/h (0 Bft) 93,62 %
18.05.2022 22:40 23,8 C 22,2 C 17,8 C 74 % 1019,1 hPa 0,0 l/m 0 min 0 min 0 W/m 0,0 km/h (0 Bft) 97,87 %
18.05.2022 22:42 23,7 C 22,2 C 17,8 C 74 % 1019,1 hPa 0,0 l/m 0 min 0 min 0 W/m 3,2 km/h (1 Bft) 100,00 %
18.05.2022 22:44 23,7 C 22,2 C 17,8 C 74 % 1019,1 hPa 0,0 l/m 0 min 0 min 0 W/m 3,2 km/h (1 Bft) 100,00 %
18.05.2022 22:46 23,7 C 22,2 C 17,8 C 74 % 1019,1 hPa 0,0 l/m 0 min 0 min 0 W/m 0,0 km/h (0 Bft) 100,00 %
18.05.2022 22:48 23,6 C 22,2 C 17,8 C 74 % 1019,1 hPa 0,0 l/m 0 min 0 min 0 W/m 3,2 km/h (1 Bft) 100,00 %
18.05.2022 22:50 23,6 C 22,2 C 17,8 C 74 % 1019,1 hPa 0,0 l/m 0 min 0 min 0 W/m 0,0 km/h (0 Bft) 97,87 %
18.05.2022 22:52 23,5 C 22,2 C 17,8 C 74 % 1019,1 hPa 0,0 l/m 0 min 0 min 0 W/m 3,2 km/h (1 Bft) 95,74 %
18.05.2022 22:54 23,4 C 22,2 C 17,8 C 74 % 1019,1 hPa 0,0 l/m 0 min 0 min 0 W/m 0,0 km/h (0 Bft) 97,83 %
18.05.2022 22:56 23,4 C 22,2 C 17,8 C 75 % 1019,0 hPa 0,0 l/m 0 min 0 min 0 W/m 0,0 km/h (0 Bft) 97,87 %
18.05.2022 22:58 23,4 C 22,2 C 17,8 C 75 % 1019,0 hPa 0,0 l/m 0 min 0 min 0 W/m 0,0 km/h (0 Bft) 97,87 %
18.05.2022 23:00 23,3 C 22,2 C 17,8 C 75 % 1019,1 hPa 0,0 l/m 0 min 0 min 0 W/m 0,0 km/h (0 Bft) 97,87 %
18.05.2022 23:02 23,3 C 21,7 C 17,8 C 75 % 1019,1 hPa 0,0 l/m 0 min 0 min 0 W/m 3,2 km/h (1 Bft) 93,62 %
18.05.2022 23:04 23,3 C 21,7 C 17,8 C 75 % 1019,1 hPa 0,0 l/m 0 min 0 min 0 W/m 3,2 km/h (1 Bft) 97,87 %
18.05.2022 23:06 23,3 C 21,7 C 17,2 C 76 % 1019,1 hPa 0,0 l/m 0 min 0 min 0 W/m 0,0 km/h (0 Bft) 97,83 %
18.05.2022 23:08 23,2 C 21,7 C 17,2 C 76 % 1019,1 hPa 0,0 l/m 0 min 0 min 0 W/m 0,0 km/h (0 Bft) 95,74 %
18.05.2022 23:10 23,2 C 21,7 C 17,2 C 76 % 1019,0 hPa 0,0 l/m 0 min 0 min 0 W/m 0,0 km/h (0 Bft) 95,74 %
18.05.2022 23:12 23,2 C 21,1 C 17,2 C 77 % 1019,0 hPa 0,0 l/m 0 min 0 min 0 W/m 0,0 km/h (0 Bft) 93,62 %
18.05.2022 23:14 23,1 C 21,1 C 17,2 C 77 % 1019,1 hPa 0,0 l/m 0 min 0 min 0 W/m 0,0 km/h (0 Bft) 93,62 %
18.05.2022 23:16 23,1 C 21,1 C 17,2 C 78 % 1019,1 hPa 0,0 l/m 0 min 0 min 0 W/m 0,0 km/h (0 Bft) 95,74 %
18.05.2022 23:18 23,0 C 21,1 C 17,2 C 78 % 1019,0 hPa 0,0 l/m 0 min 0 min 0 W/m 0,0 km/h (0 Bft) 95,65 %
18.05.2022 23:20 22,9 C 21,1 C 17,2 C 78 % 1019,0 hPa 0,0 l/m 0 min 0 min 0 W/m 0,0 km/h (0 Bft) 97,87 %
18.05.2022 23:22 22,9 C 21,1 C 17,2 C 78 % 1019,1 hPa 0,0 l/m 0 min 0 min 0 W/m 0,0 km/h (0 Bft) 97,87 %
18.05.2022 23:24 22,8 C 21,1 C 17,2 C 78 % 1019,1 hPa 0,0 l/m 0 min 0 min 0 W/m 0,0 km/h (0 Bft) 95,74 %
18.05.2022 23:26 22,8 C 21,1 C 16,7 C 79 % 1019,1 hPa 0,0 l/m 0 min 0 min 0 W/m 0,0 km/h (0 Bft) 95,74 %
18.05.2022 23:28 22,7 C 21,1 C 16,7 C 78 % 1019,1 hPa 0,0 l/m 0 min 0 min 0 W/m 0,0 km/h (0 Bft) 97,87 %
18.05.2022 23:30 22,7 C 21,1 C 16,7 C 78 % 1019,1 hPa 0,0 l/m 0 min 0 min 0 W/m 0,0 km/h (0 Bft) 97,83 %
18.05.2022 23:32 22,6 C 21,1 C 16,7 C 78 % 1019,1 hPa 0,0 l/m 0 min 0 min 0 W/m 3,2 km/h (1 Bft) 97,87 %
18.05.2022 23:34 22,6 C 20,6 C 16,7 C 78 % 1019,0 hPa 0,0 l/m 0 min 0 min 0 W/m 0,0 km/h (0 Bft) 97,87 %
18.05.2022 23:36 22,5 C 20,6 C 16,7 C 78 % 1019,0 hPa 0,0 l/m 0 min 0 min 0 W/m 3,2 km/h (1 Bft) 97,87 %
18.05.2022 23:38 22,4 C 20,6 C 16,7 C 78 % 1019,0 hPa 0,0 l/m 0 min 0 min 0 W/m 3,2 km/h (1 Bft) 97,87 %
18.05.2022 23:40 22,3 C 20,6 C 16,7 C 79 % 1019,0 hPa 0,0 l/m 0 min 0 min 0 W/m 3,2 km/h (1 Bft) 95,74 %
18.05.2022 23:42 22,3 C 20,6 C 16,7 C 79 % 1019,0 hPa 0,0 l/m 0 min 0 min 0 W/m 6,4 km/h (2 Bft) 97,83 %
18.05.2022 23:44 22,2 C 20,6 C 16,7 C 79 % 1019,0 hPa 0,0 l/m 0 min 0 min 0 W/m 3,2 km/h (1 Bft) 97,87 %
18.05.2022 23:46 22,1 C 20,6 C 16,7 C 79 % 1019,0 hPa 0,0 l/m 0 min 0 min 0 W/m 3,2 km/h (1 Bft) 97,87 %
18.05.2022 23:48 22,0 C 20,6 C 16,7 C 80 % 1018,9 hPa 0,0 l/m 0 min 0 min 0 W/m 6,4 km/h (2 Bft) 97,87 %
18.05.2022 23:50 21,9 C 20,6 C 16,7 C 80 % 1019,0 hPa 0,0 l/m 0 min 0 min 0 W/m 3,2 km/h (1 Bft) 97,87 %
18.05.2022 23:52 21,9 C 20,6 C 16,7 C 80 % 1018,9 hPa 0,0 l/m 0 min 0 min 0 W/m 3,2 km/h (1 Bft) 97,87 %
18.05.2022 23:54 21,9 C 20,6 C 16,7 C 80 % 1018,9 hPa 0,0 l/m 0 min 0 min 0 W/m 3,2 km/h (1 Bft) 97,83 %
18.05.2022 23:56 21,8 C 20,6 C 16,7 C 80 % 1019,0 hPa 0,0 l/m 0 min 0 min 0 W/m 3,2 km/h (1 Bft) 97,87 %
18.05.2022 23:58 21,8 C 20,6 C 16,7 C 80 % 1019,0 hPa 0,0 l/m 0 min 0 min 0 W/m 3,2 km/h (1 Bft) 95,74 %
_ Min-Zeit 05:40 04:30 04:36 15:44 00:00 - - - - 00:02 00:02
Minimum _ 17,6 C 16,7 C 13,3 C 46 % 1018,9 hPa - - - - 0,0 km/h (0 Bft) 13,33 %
_ Max-Zeit 17:10 17:05 13:42 05:52 10:08 00:00 13:03 00:00 14:32 14:14 00:08
Maximum _ 30,9 C 35,6 C 35,6 C 83 % 1021,4 hPa 0,0 l/m 5 min 0 min 919 W/m 22,5 km/h
S-SO (4 Bft)
100,00 %
Durchschnitt _ 24,3 C 24,6 C 20,3 C 66 % 1019,9 hPa #0,0 l/m #9:41 h #0 min. 419 W/m 7,2 km/h (2 Bft) 97,31 %
© 2022 W. Hausmann